<?xml version="1.0" encoding="UTF-8" standalone="no" ?>
<gpx xmlns="http://www.topografix.com/GPX/1/1" xmlns:xsi="http://www.w3.org/2001/XMLSchema-instance" xsi:schemaLocation="http://www.topografix.com/GPX/1/1 http://www.topografix.com/GPX/1/1/gpx.xsd" version="1.1" creator="VisuGPX - https://www.visugpx.com">
  <metadata>
    <name>Najac E8</name>
    <desc><![CDATA[Rando Brie Najac 2011
hub03grmicnaj]]></desc>
  </metadata>
  <trk>
    <name><![CDATA[Toaster Course]]></name>
    <trkseg>
      <trkpt lat="44.63336" lon="2.01964">
        <ele>345</ele>
        <time>2011-09-04T00:00:00Z</time>
      </trkpt>
      <trkpt lat="44.63337" lon="2.01961">
        <ele>344</ele>
        <time>2011-09-04T00:00:00Z</time>
      </trkpt>
      <trkpt lat="44.63267" lon="2.01948">
        <ele>341</ele>
        <time>2011-09-04T00:00:09Z</time>
      </trkpt>
      <trkpt lat="44.63267" lon="2.01891">
        <ele>339</ele>
        <time>2011-09-04T00:00:15Z</time>
      </trkpt>
      <trkpt lat="44.63261" lon="2.01893">
        <ele>339</ele>
        <time>2011-09-04T00:00:15Z</time>
      </trkpt>
      <trkpt lat="44.63081" lon="2.0195">
        <ele>334</ele>
        <time>2011-09-04T00:00:40Z</time>
      </trkpt>
      <trkpt lat="44.6301" lon="2.01984">
        <ele>335</ele>
        <time>2011-09-04T00:00:54Z</time>
      </trkpt>
      <trkpt lat="44.62939" lon="2.01997">
        <ele>337</ele>
        <time>2011-09-04T00:01:07Z</time>
      </trkpt>
      <trkpt lat="44.62845" lon="2.0204">
        <ele>338</ele>
        <time>2011-09-04T00:01:23Z</time>
      </trkpt>
      <trkpt lat="44.6263" lon="2.02124">
        <ele>326</ele>
        <time>2011-09-04T00:01:52Z</time>
      </trkpt>
      <trkpt lat="44.62443" lon="2.0221">
        <ele>317</ele>
        <time>2011-09-04T00:02:19Z</time>
      </trkpt>
      <trkpt lat="44.62256" lon="2.02268">
        <ele>308</ele>
        <time>2011-09-04T00:02:44Z</time>
      </trkpt>
      <trkpt lat="44.62107" lon="2.02356">
        <ele>304</ele>
        <time>2011-09-04T00:03:06Z</time>
      </trkpt>
      <trkpt lat="44.61977" lon="2.02442">
        <ele>303</ele>
        <time>2011-09-04T00:03:25Z</time>
      </trkpt>
      <trkpt lat="44.61908" lon="2.02472">
        <ele>295</ele>
        <time>2011-09-04T00:03:35Z</time>
      </trkpt>
      <trkpt lat="44.61768" lon="2.0252">
        <ele>280</ele>
        <time>2011-09-04T00:03:54Z</time>
      </trkpt>
      <trkpt lat="44.61662" lon="2.02564">
        <ele>263</ele>
        <time>2011-09-04T00:04:09Z</time>
      </trkpt>
      <trkpt lat="44.61589" lon="2.02561">
        <ele>253</ele>
        <time>2011-09-04T00:04:18Z</time>
      </trkpt>
      <trkpt lat="44.61516" lon="2.02568">
        <ele>244</ele>
        <time>2011-09-04T00:04:28Z</time>
      </trkpt>
      <trkpt lat="44.61447" lon="2.02592">
        <ele>237</ele>
        <time>2011-09-04T00:04:38Z</time>
      </trkpt>
      <trkpt lat="44.61265" lon="2.0267">
        <ele>219</ele>
        <time>2011-09-04T00:05:03Z</time>
      </trkpt>
      <trkpt lat="44.6118" lon="2.02686">
        <ele>210</ele>
        <time>2011-09-04T00:05:15Z</time>
      </trkpt>
      <trkpt lat="44.6111" lon="2.02708">
        <ele>204</ele>
        <time>2011-09-04T00:05:24Z</time>
      </trkpt>
      <trkpt lat="44.61083" lon="2.02788">
        <ele>200</ele>
        <time>2011-09-04T00:05:33Z</time>
      </trkpt>
      <trkpt lat="44.61071" lon="2.02788">
        <ele>200</ele>
        <time>2011-09-04T00:05:34Z</time>
      </trkpt>
      <trkpt lat="44.61067" lon="2.02794">
        <ele>200</ele>
        <time>2011-09-04T00:05:35Z</time>
      </trkpt>
      <trkpt lat="44.61057" lon="2.02792">
        <ele>199</ele>
        <time>2011-09-04T00:05:36Z</time>
      </trkpt>
      <trkpt lat="44.60987" lon="2.02751">
        <ele>196</ele>
        <time>2011-09-04T00:05:46Z</time>
      </trkpt>
      <trkpt lat="44.60958" lon="2.02739">
        <ele>196</ele>
        <time>2011-09-04T00:05:50Z</time>
      </trkpt>
      <trkpt lat="44.60932" lon="2.02735">
        <ele>196</ele>
        <time>2011-09-04T00:05:54Z</time>
      </trkpt>
      <trkpt lat="44.60884" lon="2.02945">
        <ele>196</ele>
        <time>2011-09-04T00:06:15Z</time>
      </trkpt>
      <trkpt lat="44.60875" lon="2.03007">
        <ele>195</ele>
        <time>2011-09-04T00:06:21Z</time>
      </trkpt>
      <trkpt lat="44.6076" lon="2.02972">
        <ele>194</ele>
        <time>2011-09-04T00:06:37Z</time>
      </trkpt>
      <trkpt lat="44.60807" lon="2.02599">
        <ele>194</ele>
        <time>2011-09-04T00:07:13Z</time>
      </trkpt>
      <trkpt lat="44.60763" lon="2.02595">
        <ele>194</ele>
        <time>2011-09-04T00:07:21Z</time>
      </trkpt>
      <trkpt lat="44.6071" lon="2.0261">
        <ele>196</ele>
        <time>2011-09-04T00:07:31Z</time>
      </trkpt>
      <trkpt lat="44.60691" lon="2.02604">
        <ele>195</ele>
        <time>2011-09-04T00:07:33Z</time>
      </trkpt>
      <trkpt lat="44.6069" lon="2.02593">
        <ele>195</ele>
        <time>2011-09-04T00:07:34Z</time>
      </trkpt>
      <trkpt lat="44.60679" lon="2.02586">
        <ele>195</ele>
        <time>2011-09-04T00:07:36Z</time>
      </trkpt>
      <trkpt lat="44.60672" lon="2.024">
        <ele>193</ele>
        <time>2011-09-04T00:07:54Z</time>
      </trkpt>
      <trkpt lat="44.60664" lon="2.02342">
        <ele>192</ele>
        <time>2011-09-04T00:07:59Z</time>
      </trkpt>
      <trkpt lat="44.60639" lon="2.02243">
        <ele>192</ele>
        <time>2011-09-04T00:08:09Z</time>
      </trkpt>
      <trkpt lat="44.60624" lon="2.02201">
        <ele>191</ele>
        <time>2011-09-04T00:08:14Z</time>
      </trkpt>
      <trkpt lat="44.60563" lon="2.02086">
        <ele>191</ele>
        <time>2011-09-04T00:08:27Z</time>
      </trkpt>
      <trkpt lat="44.6043" lon="2.01996">
        <ele>195</ele>
        <time>2011-09-04T00:08:57Z</time>
      </trkpt>
      <trkpt lat="44.60385" lon="2.01905">
        <ele>193</ele>
        <time>2011-09-04T00:09:07Z</time>
      </trkpt>
      <trkpt lat="44.60372" lon="2.01893">
        <ele>193</ele>
        <time>2011-09-04T00:09:09Z</time>
      </trkpt>
      <trkpt lat="44.60352" lon="2.0189">
        <ele>194</ele>
        <time>2011-09-04T00:09:16Z</time>
      </trkpt>
      <trkpt lat="44.60313" lon="2.01902">
        <ele>197</ele>
        <time>2011-09-04T00:09:28Z</time>
      </trkpt>
      <trkpt lat="44.60279" lon="2.01904">
        <ele>200</ele>
        <time>2011-09-04T00:09:39Z</time>
      </trkpt>
      <trkpt lat="44.60264" lon="2.01903">
        <ele>200</ele>
        <time>2011-09-04T00:09:43Z</time>
      </trkpt>
      <trkpt lat="44.60243" lon="2.01891">
        <ele>202</ele>
        <time>2011-09-04T00:09:49Z</time>
      </trkpt>
      <trkpt lat="44.60134" lon="2.0177">
        <ele>211</ele>
        <time>2011-09-04T00:10:29Z</time>
      </trkpt>
      <trkpt lat="44.60054" lon="2.01712">
        <ele>213</ele>
        <time>2011-09-04T00:10:45Z</time>
      </trkpt>
      <trkpt lat="44.60007" lon="2.01651">
        <ele>213</ele>
        <time>2011-09-04T00:10:54Z</time>
      </trkpt>
      <trkpt lat="44.59987" lon="2.01622">
        <ele>213</ele>
        <time>2011-09-04T00:10:58Z</time>
      </trkpt>
      <trkpt lat="44.59948" lon="2.01528">
        <ele>211</ele>
        <time>2011-09-04T00:11:08Z</time>
      </trkpt>
      <trkpt lat="44.59838" lon="2.01347">
        <ele>207</ele>
        <time>2011-09-04T00:11:31Z</time>
      </trkpt>
      <trkpt lat="44.59527" lon="2.00663">
        <ele>195</ele>
        <time>2011-09-04T00:12:48Z</time>
      </trkpt>
      <trkpt lat="44.59493" lon="2.00621">
        <ele>194</ele>
        <time>2011-09-04T00:12:54Z</time>
      </trkpt>
      <trkpt lat="44.59406" lon="2.00539">
        <ele>194</ele>
        <time>2011-09-04T00:13:08Z</time>
      </trkpt>
      <trkpt lat="44.59365" lon="2.00494">
        <ele>194</ele>
        <time>2011-09-04T00:13:15Z</time>
      </trkpt>
      <trkpt lat="44.59297" lon="2.00408">
        <ele>194</ele>
        <time>2011-09-04T00:13:27Z</time>
      </trkpt>
      <trkpt lat="44.59273" lon="2.00374">
        <ele>194</ele>
        <time>2011-09-04T00:13:32Z</time>
      </trkpt>
      <trkpt lat="44.59245" lon="2.00323">
        <ele>194</ele>
        <time>2011-09-04T00:13:39Z</time>
      </trkpt>
      <trkpt lat="44.5908" lon="2.00012">
        <ele>196</ele>
        <time>2011-09-04T00:14:20Z</time>
      </trkpt>
      <trkpt lat="44.59" lon="1.99937">
        <ele>198</ele>
        <time>2011-09-04T00:14:37Z</time>
      </trkpt>
      <trkpt lat="44.58978" lon="1.99906">
        <ele>199</ele>
        <time>2011-09-04T00:14:45Z</time>
      </trkpt>
      <trkpt lat="44.58953" lon="1.9991">
        <ele>200</ele>
        <time>2011-09-04T00:14:52Z</time>
      </trkpt>
      <trkpt lat="44.5893" lon="1.99905">
        <ele>202</ele>
        <time>2011-09-04T00:14:58Z</time>
      </trkpt>
      <trkpt lat="44.58757" lon="1.99849">
        <ele>211</ele>
        <time>2011-09-04T00:15:43Z</time>
      </trkpt>
      <trkpt lat="44.58731" lon="1.9983">
        <ele>213</ele>
        <time>2011-09-04T00:15:52Z</time>
      </trkpt>
      <trkpt lat="44.58704" lon="1.99761">
        <ele>217</ele>
        <time>2011-09-04T00:16:10Z</time>
      </trkpt>
      <trkpt lat="44.587" lon="1.99738">
        <ele>219</ele>
        <time>2011-09-04T00:16:16Z</time>
      </trkpt>
      <trkpt lat="44.587" lon="1.99683">
        <ele>218</ele>
        <time>2011-09-04T00:16:21Z</time>
      </trkpt>
      <trkpt lat="44.5871" lon="1.99544">
        <ele>217</ele>
        <time>2011-09-04T00:16:34Z</time>
      </trkpt>
      <trkpt lat="44.58689" lon="1.99426">
        <ele>222</ele>
        <time>2011-09-04T00:16:59Z</time>
      </trkpt>
      <trkpt lat="44.58677" lon="1.9937">
        <ele>225</ele>
        <time>2011-09-04T00:17:10Z</time>
      </trkpt>
      <trkpt lat="44.5867" lon="1.99353">
        <ele>225</ele>
        <time>2011-09-04T00:17:14Z</time>
      </trkpt>
      <trkpt lat="44.58653" lon="1.99329">
        <ele>226</ele>
        <time>2011-09-04T00:17:20Z</time>
      </trkpt>
      <trkpt lat="44.58624" lon="1.99302">
        <ele>228</ele>
        <time>2011-09-04T00:17:28Z</time>
      </trkpt>
      <trkpt lat="44.58393" lon="1.99162">
        <ele>240</ele>
        <time>2011-09-04T00:18:30Z</time>
      </trkpt>
      <trkpt lat="44.58358" lon="1.99135">
        <ele>241</ele>
        <time>2011-09-04T00:18:38Z</time>
      </trkpt>
      <trkpt lat="44.5834" lon="1.99105">
        <ele>241</ele>
        <time>2011-09-04T00:18:43Z</time>
      </trkpt>
      <trkpt lat="44.58278" lon="1.98957">
        <ele>245</ele>
        <time>2011-09-04T00:19:07Z</time>
      </trkpt>
      <trkpt lat="44.58256" lon="1.98928">
        <ele>245</ele>
        <time>2011-09-04T00:19:13Z</time>
      </trkpt>
      <trkpt lat="44.58237" lon="1.98912">
        <ele>246</ele>
        <time>2011-09-04T00:19:18Z</time>
      </trkpt>
      <trkpt lat="44.5821" lon="1.98902">
        <ele>247</ele>
        <time>2011-09-04T00:19:23Z</time>
      </trkpt>
      <trkpt lat="44.58182" lon="1.98901">
        <ele>248</ele>
        <time>2011-09-04T00:19:29Z</time>
      </trkpt>
      <trkpt lat="44.58148" lon="1.98904">
        <ele>249</ele>
        <time>2011-09-04T00:19:38Z</time>
      </trkpt>
      <trkpt lat="44.58124" lon="1.98912">
        <ele>251</ele>
        <time>2011-09-04T00:19:44Z</time>
      </trkpt>
      <trkpt lat="44.58096" lon="1.98941">
        <ele>253</ele>
        <time>2011-09-04T00:19:53Z</time>
      </trkpt>
      <trkpt lat="44.58019" lon="1.99078">
        <ele>273</ele>
        <time>2011-09-04T00:20:58Z</time>
      </trkpt>
      <trkpt lat="44.58006" lon="1.9909">
        <ele>272</ele>
        <time>2011-09-04T00:21:00Z</time>
      </trkpt>
      <trkpt lat="44.57987" lon="1.99094">
        <ele>271</ele>
        <time>2011-09-04T00:21:03Z</time>
      </trkpt>
      <trkpt lat="44.57968" lon="1.9909">
        <ele>271</ele>
        <time>2011-09-04T00:21:05Z</time>
      </trkpt>
      <trkpt lat="44.57913" lon="1.99021">
        <ele>269</ele>
        <time>2011-09-04T00:21:15Z</time>
      </trkpt>
      <trkpt lat="44.57884" lon="1.99003">
        <ele>270</ele>
        <time>2011-09-04T00:21:24Z</time>
      </trkpt>
      <trkpt lat="44.57836" lon="1.99007">
        <ele>273</ele>
        <time>2011-09-04T00:21:37Z</time>
      </trkpt>
      <trkpt lat="44.57763" lon="1.99026">
        <ele>278</ele>
        <time>2011-09-04T00:21:57Z</time>
      </trkpt>
      <trkpt lat="44.57743" lon="1.99026">
        <ele>276</ele>
        <time>2011-09-04T00:22:00Z</time>
      </trkpt>
      <trkpt lat="44.5766" lon="1.98991">
        <ele>271</ele>
        <time>2011-09-04T00:22:11Z</time>
      </trkpt>
      <trkpt lat="44.57637" lon="1.98999">
        <ele>273</ele>
        <time>2011-09-04T00:22:21Z</time>
      </trkpt>
      <trkpt lat="44.57617" lon="1.99018">
        <ele>275</ele>
        <time>2011-09-04T00:22:30Z</time>
      </trkpt>
      <trkpt lat="44.57546" lon="1.9913">
        <ele>287</ele>
        <time>2011-09-04T00:23:11Z</time>
      </trkpt>
      <trkpt lat="44.57535" lon="1.99136">
        <ele>287</ele>
        <time>2011-09-04T00:23:13Z</time>
      </trkpt>
      <trkpt lat="44.57508" lon="1.99138">
        <ele>287</ele>
        <time>2011-09-04T00:23:18Z</time>
      </trkpt>
      <trkpt lat="44.57405" lon="1.9912">
        <ele>290</ele>
        <time>2011-09-04T00:23:37Z</time>
      </trkpt>
      <trkpt lat="44.57382" lon="1.99103">
        <ele>290</ele>
        <time>2011-09-04T00:23:42Z</time>
      </trkpt>
      <trkpt lat="44.57366" lon="1.99071">
        <ele>291</ele>
        <time>2011-09-04T00:23:47Z</time>
      </trkpt>
      <trkpt lat="44.57348" lon="1.98959">
        <ele>293</ele>
        <time>2011-09-04T00:24:02Z</time>
      </trkpt>
      <trkpt lat="44.57336" lon="1.98932">
        <ele>294</ele>
        <time>2011-09-04T00:24:08Z</time>
      </trkpt>
      <trkpt lat="44.57272" lon="1.989">
        <ele>297</ele>
        <time>2011-09-04T00:24:25Z</time>
      </trkpt>
      <trkpt lat="44.57008" lon="1.98788">
        <ele>311</ele>
        <time>2011-09-04T00:25:34Z</time>
      </trkpt>
      <trkpt lat="44.57008" lon="1.98788">
        <ele>311</ele>
        <time>2011-09-04T00:25:35Z</time>
      </trkpt>
      <trkpt lat="44.56924" lon="1.98749">
        <ele>314</ele>
        <time>2011-09-04T00:25:55Z</time>
      </trkpt>
      <trkpt lat="44.56898" lon="1.98747">
        <ele>315</ele>
        <time>2011-09-04T00:26:00Z</time>
      </trkpt>
      <trkpt lat="44.56882" lon="1.98751">
        <ele>315</ele>
        <time>2011-09-04T00:26:03Z</time>
      </trkpt>
      <trkpt lat="44.56823" lon="1.98786">
        <ele>315</ele>
        <time>2011-09-04T00:26:12Z</time>
      </trkpt>
      <trkpt lat="44.56738" lon="1.98847">
        <ele>316</ele>
        <time>2011-09-04T00:26:26Z</time>
      </trkpt>
      <trkpt lat="44.56703" lon="1.98854">
        <ele>313</ele>
        <time>2011-09-04T00:26:31Z</time>
      </trkpt>
      <trkpt lat="44.56627" lon="1.98827">
        <ele>309</ele>
        <time>2011-09-04T00:26:41Z</time>
      </trkpt>
      <trkpt lat="44.56571" lon="1.98819">
        <ele>306</ele>
        <time>2011-09-04T00:26:49Z</time>
      </trkpt>
      <trkpt lat="44.56388" lon="1.98832">
        <ele>298</ele>
        <time>2011-09-04T00:27:13Z</time>
      </trkpt>
      <trkpt lat="44.56365" lon="1.98824">
        <ele>299</ele>
        <time>2011-09-04T00:27:19Z</time>
      </trkpt>
      <trkpt lat="44.56358" lon="1.9881">
        <ele>299</ele>
        <time>2011-09-04T00:27:22Z</time>
      </trkpt>
      <trkpt lat="44.56364" lon="1.98785">
        <ele>300</ele>
        <time>2011-09-04T00:27:27Z</time>
      </trkpt>
      <trkpt lat="44.56432" lon="1.98725">
        <ele>304</ele>
        <time>2011-09-04T00:27:46Z</time>
      </trkpt>
      <trkpt lat="44.5644" lon="1.98709">
        <ele>305</ele>
        <time>2011-09-04T00:27:50Z</time>
      </trkpt>
      <trkpt lat="44.56452" lon="1.9862">
        <ele>298</ele>
        <time>2011-09-04T00:27:59Z</time>
      </trkpt>
      <trkpt lat="44.56454" lon="1.98578">
        <ele>295</ele>
        <time>2011-09-04T00:28:03Z</time>
      </trkpt>
      <trkpt lat="44.5645" lon="1.98531">
        <ele>292</ele>
        <time>2011-09-04T00:28:07Z</time>
      </trkpt>
      <trkpt lat="44.56445" lon="1.98502">
        <ele>290</ele>
        <time>2011-09-04T00:28:10Z</time>
      </trkpt>
      <trkpt lat="44.56415" lon="1.98397">
        <ele>283</ele>
        <time>2011-09-04T00:28:21Z</time>
      </trkpt>
      <trkpt lat="44.56415" lon="1.98338">
        <ele>283</ele>
        <time>2011-09-04T00:28:28Z</time>
      </trkpt>
      <trkpt lat="44.56432" lon="1.98215">
        <ele>285</ele>
        <time>2011-09-04T00:28:43Z</time>
      </trkpt>
      <trkpt lat="44.56408" lon="1.98132">
        <ele>283</ele>
        <time>2011-09-04T00:28:52Z</time>
      </trkpt>
      <trkpt lat="44.56377" lon="1.98057">
        <ele>282</ele>
        <time>2011-09-04T00:29:00Z</time>
      </trkpt>
      <trkpt lat="44.56359" lon="1.98042">
        <ele>281</ele>
        <time>2011-09-04T00:29:03Z</time>
      </trkpt>
      <trkpt lat="44.56234" lon="1.97997">
        <ele>277</ele>
        <time>2011-09-04T00:29:20Z</time>
      </trkpt>
      <trkpt lat="44.56211" lon="1.97996">
        <ele>274</ele>
        <time>2011-09-04T00:29:23Z</time>
      </trkpt>
      <trkpt lat="44.56182" lon="1.98011">
        <ele>270</ele>
        <time>2011-09-04T00:29:27Z</time>
      </trkpt>
      <trkpt lat="44.56157" lon="1.98032">
        <ele>267</ele>
        <time>2011-09-04T00:29:31Z</time>
      </trkpt>
      <trkpt lat="44.56114" lon="1.98088">
        <ele>261</ele>
        <time>2011-09-04T00:29:39Z</time>
      </trkpt>
      <trkpt lat="44.56095" lon="1.98102">
        <ele>261</ele>
        <time>2011-09-04T00:29:42Z</time>
      </trkpt>
      <trkpt lat="44.56074" lon="1.98104">
        <ele>261</ele>
        <time>2011-09-04T00:29:44Z</time>
      </trkpt>
      <trkpt lat="44.55984" lon="1.98064">
        <ele>261</ele>
        <time>2011-09-04T00:29:57Z</time>
      </trkpt>
      <trkpt lat="44.55967" lon="1.98063">
        <ele>259</ele>
        <time>2011-09-04T00:29:59Z</time>
      </trkpt>
      <trkpt lat="44.55952" lon="1.98073">
        <ele>257</ele>
        <time>2011-09-04T00:30:02Z</time>
      </trkpt>
      <trkpt lat="44.55942" lon="1.98094">
        <ele>256</ele>
        <time>2011-09-04T00:30:04Z</time>
      </trkpt>
      <trkpt lat="44.55878" lon="1.9831">
        <ele>241</ele>
        <time>2011-09-04T00:30:26Z</time>
      </trkpt>
      <trkpt lat="44.55864" lon="1.98335">
        <ele>243</ele>
        <time>2011-09-04T00:30:35Z</time>
      </trkpt>
      <trkpt lat="44.55858" lon="1.98342">
        <ele>243</ele>
        <time>2011-09-04T00:30:37Z</time>
      </trkpt>
      <trkpt lat="44.55837" lon="1.98343">
        <ele>246</ele>
        <time>2011-09-04T00:30:45Z</time>
      </trkpt>
      <trkpt lat="44.55792" lon="1.98305">
        <ele>251</ele>
        <time>2011-09-04T00:31:05Z</time>
      </trkpt>
      <trkpt lat="44.55784" lon="1.98304">
        <ele>252</ele>
        <time>2011-09-04T00:31:08Z</time>
      </trkpt>
      <trkpt lat="44.55746" lon="1.9832">
        <ele>248</ele>
        <time>2011-09-04T00:31:13Z</time>
      </trkpt>
      <trkpt lat="44.5573" lon="1.98336">
        <ele>247</ele>
        <time>2011-09-04T00:31:15Z</time>
      </trkpt>
      <trkpt lat="44.5572" lon="1.98363">
        <ele>245</ele>
        <time>2011-09-04T00:31:18Z</time>
      </trkpt>
      <trkpt lat="44.55698" lon="1.98527">
        <ele>236</ele>
        <time>2011-09-04T00:31:34Z</time>
      </trkpt>
      <trkpt lat="44.55687" lon="1.9856">
        <ele>234</ele>
        <time>2011-09-04T00:31:38Z</time>
      </trkpt>
      <trkpt lat="44.55671" lon="1.98578">
        <ele>233</ele>
        <time>2011-09-04T00:31:40Z</time>
      </trkpt>
      <trkpt lat="44.55649" lon="1.98588">
        <ele>232</ele>
        <time>2011-09-04T00:31:44Z</time>
      </trkpt>
      <trkpt lat="44.5557" lon="1.98602">
        <ele>229</ele>
        <time>2011-09-04T00:31:54Z</time>
      </trkpt>
      <trkpt lat="44.55459" lon="1.98598">
        <ele>230</ele>
        <time>2011-09-04T00:32:11Z</time>
      </trkpt>
      <trkpt lat="44.554" lon="1.98621">
        <ele>224</ele>
        <time>2011-09-04T00:32:20Z</time>
      </trkpt>
      <trkpt lat="44.55346" lon="1.98627">
        <ele>220</ele>
        <time>2011-09-04T00:32:27Z</time>
      </trkpt>
      <trkpt lat="44.5529" lon="1.98624">
        <ele>217</ele>
        <time>2011-09-04T00:32:34Z</time>
      </trkpt>
      <trkpt lat="44.55255" lon="1.98611">
        <ele>216</ele>
        <time>2011-09-04T00:32:39Z</time>
      </trkpt>
      <trkpt lat="44.55198" lon="1.98581">
        <ele>217</ele>
        <time>2011-09-04T00:32:51Z</time>
      </trkpt>
      <trkpt lat="44.55148" lon="1.98541">
        <ele>219</ele>
        <time>2011-09-04T00:33:02Z</time>
      </trkpt>
      <trkpt lat="44.55067" lon="1.98502">
        <ele>211</ele>
        <time>2011-09-04T00:33:14Z</time>
      </trkpt>
      <trkpt lat="44.54965" lon="1.98432">
        <ele>202</ele>
        <time>2011-09-04T00:33:29Z</time>
      </trkpt>
      <trkpt lat="44.54949" lon="1.98412">
        <ele>203</ele>
        <time>2011-09-04T00:33:35Z</time>
      </trkpt>
      <trkpt lat="44.54922" lon="1.98361">
        <ele>206</ele>
        <time>2011-09-04T00:33:48Z</time>
      </trkpt>
      <trkpt lat="44.54898" lon="1.98334">
        <ele>208</ele>
        <time>2011-09-04T00:33:56Z</time>
      </trkpt>
      <trkpt lat="44.54841" lon="1.9832">
        <ele>201</ele>
        <time>2011-09-04T00:34:04Z</time>
      </trkpt>
      <trkpt lat="44.54786" lon="1.98291">
        <ele>195</ele>
        <time>2011-09-04T00:34:12Z</time>
      </trkpt>
      <trkpt lat="44.54728" lon="1.98249">
        <ele>193</ele>
        <time>2011-09-04T00:34:21Z</time>
      </trkpt>
      <trkpt lat="44.54705" lon="1.98211">
        <ele>193</ele>
        <time>2011-09-04T00:34:25Z</time>
      </trkpt>
      <trkpt lat="44.54673" lon="1.98179">
        <ele>192</ele>
        <time>2011-09-04T00:34:31Z</time>
      </trkpt>
      <trkpt lat="44.54666" lon="1.9816">
        <ele>192</ele>
        <time>2011-09-04T00:34:33Z</time>
      </trkpt>
      <trkpt lat="44.54668" lon="1.98129">
        <ele>192</ele>
        <time>2011-09-04T00:34:36Z</time>
      </trkpt>
      <trkpt lat="44.54696" lon="1.98071">
        <ele>192</ele>
        <time>2011-09-04T00:34:42Z</time>
      </trkpt>
      <trkpt lat="44.54698" lon="1.98049">
        <ele>191</ele>
        <time>2011-09-04T00:34:44Z</time>
      </trkpt>
      <trkpt lat="44.54691" lon="1.9802">
        <ele>190</ele>
        <time>2011-09-04T00:34:47Z</time>
      </trkpt>
      <trkpt lat="44.54672" lon="1.97998">
        <ele>188</ele>
        <time>2011-09-04T00:34:51Z</time>
      </trkpt>
      <trkpt lat="44.54597" lon="1.97932">
        <ele>184</ele>
        <time>2011-09-04T00:35:02Z</time>
      </trkpt>
      <trkpt lat="44.54576" lon="1.97927">
        <ele>183</ele>
        <time>2011-09-04T00:35:05Z</time>
      </trkpt>
      <trkpt lat="44.54557" lon="1.9794">
        <ele>182</ele>
        <time>2011-09-04T00:35:08Z</time>
      </trkpt>
      <trkpt lat="44.54542" lon="1.97965">
        <ele>181</ele>
        <time>2011-09-04T00:35:11Z</time>
      </trkpt>
      <trkpt lat="44.54507" lon="1.98045">
        <ele>178</ele>
        <time>2011-09-04T00:35:20Z</time>
      </trkpt>
      <trkpt lat="44.54498" lon="1.98056">
        <ele>177</ele>
        <time>2011-09-04T00:35:22Z</time>
      </trkpt>
      <trkpt lat="44.54479" lon="1.98066">
        <ele>177</ele>
        <time>2011-09-04T00:35:24Z</time>
      </trkpt>
      <trkpt lat="44.54459" lon="1.98067">
        <ele>177</ele>
        <time>2011-09-04T00:35:27Z</time>
      </trkpt>
      <trkpt lat="44.54423" lon="1.98053">
        <ele>176</ele>
        <time>2011-09-04T00:35:32Z</time>
      </trkpt>
      <trkpt lat="44.54376" lon="1.9803">
        <ele>176</ele>
        <time>2011-09-04T00:35:39Z</time>
      </trkpt>
      <trkpt lat="44.54336" lon="1.98002">
        <ele>174</ele>
        <time>2011-09-04T00:35:45Z</time>
      </trkpt>
      <trkpt lat="44.54196" lon="1.97879">
        <ele>171</ele>
        <time>2011-09-04T00:36:07Z</time>
      </trkpt>
      <trkpt lat="44.54163" lon="1.97845">
        <ele>170</ele>
        <time>2011-09-04T00:36:12Z</time>
      </trkpt>
      <trkpt lat="44.54056" lon="1.97674">
        <ele>169</ele>
        <time>2011-09-04T00:36:34Z</time>
      </trkpt>
      <trkpt lat="44.54011" lon="1.97581">
        <ele>168</ele>
        <time>2011-09-04T00:36:45Z</time>
      </trkpt>
      <trkpt lat="44.53982" lon="1.97496">
        <ele>168</ele>
        <time>2011-09-04T00:36:54Z</time>
      </trkpt>
      <trkpt lat="44.53801" lon="1.97022">
        <ele>166</ele>
        <time>2011-09-04T00:37:45Z</time>
      </trkpt>
      <trkpt lat="44.53776" lon="1.96976">
        <ele>166</ele>
        <time>2011-09-04T00:37:51Z</time>
      </trkpt>
      <trkpt lat="44.53757" lon="1.96959">
        <ele>166</ele>
        <time>2011-09-04T00:37:54Z</time>
      </trkpt>
      <trkpt lat="44.53734" lon="1.96949">
        <ele>166</ele>
        <time>2011-09-04T00:37:58Z</time>
      </trkpt>
      <trkpt lat="44.53655" lon="1.96939">
        <ele>167</ele>
        <time>2011-09-04T00:38:09Z</time>
      </trkpt>
      <trkpt lat="44.53617" lon="1.96922">
        <ele>168</ele>
        <time>2011-09-04T00:38:17Z</time>
      </trkpt>
      <trkpt lat="44.5359" lon="1.96901">
        <ele>168</ele>
        <time>2011-09-04T00:38:24Z</time>
      </trkpt>
      <trkpt lat="44.53482" lon="1.96766">
        <ele>173</ele>
        <time>2011-09-04T00:38:53Z</time>
      </trkpt>
      <trkpt lat="44.5334" lon="1.96684">
        <ele>170</ele>
        <time>2011-09-04T00:39:13Z</time>
      </trkpt>
      <trkpt lat="44.5308" lon="1.96522">
        <ele>167</ele>
        <time>2011-09-04T00:39:51Z</time>
      </trkpt>
      <trkpt lat="44.53028" lon="1.96476">
        <ele>167</ele>
        <time>2011-09-04T00:40:00Z</time>
      </trkpt>
      <trkpt lat="44.52956" lon="1.96395">
        <ele>168</ele>
        <time>2011-09-04T00:40:14Z</time>
      </trkpt>
      <trkpt lat="44.52898" lon="1.96246">
        <ele>169</ele>
        <time>2011-09-04T00:40:33Z</time>
      </trkpt>
      <trkpt lat="44.52775" lon="1.96084">
        <ele>166</ele>
        <time>2011-09-04T00:40:55Z</time>
      </trkpt>
      <trkpt lat="44.52721" lon="1.96">
        <ele>166</ele>
        <time>2011-09-04T00:41:08Z</time>
      </trkpt>
      <trkpt lat="44.52706" lon="1.95953">
        <ele>167</ele>
        <time>2011-09-04T00:41:13Z</time>
      </trkpt>
      <trkpt lat="44.52663" lon="1.95779">
        <ele>171</ele>
        <time>2011-09-04T00:41:40Z</time>
      </trkpt>
      <trkpt lat="44.52561" lon="1.95501">
        <ele>172</ele>
        <time>2011-09-04T00:42:13Z</time>
      </trkpt>
      <trkpt lat="44.52459" lon="1.95298">
        <ele>167</ele>
        <time>2011-09-04T00:42:36Z</time>
      </trkpt>
      <trkpt lat="44.52436" lon="1.9524">
        <ele>165</ele>
        <time>2011-09-04T00:42:43Z</time>
      </trkpt>
      <trkpt lat="44.52389" lon="1.95069">
        <ele>161</ele>
        <time>2011-09-04T00:43:00Z</time>
      </trkpt>
      <trkpt lat="44.52371" lon="1.95102">
        <ele>160</ele>
        <time>2011-09-04T00:43:04Z</time>
      </trkpt>
      <trkpt lat="44.52301" lon="1.95185">
        <ele>159</ele>
        <time>2011-09-04T00:43:16Z</time>
      </trkpt>
      <trkpt lat="44.52266" lon="1.95243">
        <ele>158</ele>
        <time>2011-09-04T00:43:23Z</time>
      </trkpt>
      <trkpt lat="44.5217" lon="1.95424">
        <ele>158</ele>
        <time>2011-09-04T00:43:45Z</time>
      </trkpt>
      <trkpt lat="44.52139" lon="1.95507">
        <ele>157</ele>
        <time>2011-09-04T00:43:54Z</time>
      </trkpt>
      <trkpt lat="44.52062" lon="1.95639">
        <ele>157</ele>
        <time>2011-09-04T00:44:10Z</time>
      </trkpt>
      <trkpt lat="44.5201" lon="1.95737">
        <ele>157</ele>
        <time>2011-09-04T00:44:23Z</time>
      </trkpt>
      <trkpt lat="44.51977" lon="1.95771">
        <ele>158</ele>
        <time>2011-09-04T00:44:30Z</time>
      </trkpt>
      <trkpt lat="44.51847" lon="1.95853">
        <ele>171</ele>
        <time>2011-09-04T00:45:20Z</time>
      </trkpt>
      <trkpt lat="44.5183" lon="1.95783">
        <ele>170</ele>
        <time>2011-09-04T00:45:27Z</time>
      </trkpt>
      <trkpt lat="44.51776" lon="1.95618">
        <ele>168</ele>
        <time>2011-09-04T00:45:44Z</time>
      </trkpt>
      <trkpt lat="44.51752" lon="1.95545">
        <ele>168</ele>
        <time>2011-09-04T00:45:54Z</time>
      </trkpt>
      <trkpt lat="44.51695" lon="1.95396">
        <ele>171</ele>
        <time>2011-09-04T00:46:15Z</time>
      </trkpt>
      <trkpt lat="44.5166" lon="1.9527">
        <ele>167</ele>
        <time>2011-09-04T00:46:28Z</time>
      </trkpt>
      <trkpt lat="44.51637" lon="1.95213">
        <ele>167</ele>
        <time>2011-09-04T00:46:35Z</time>
      </trkpt>
      <trkpt lat="44.51615" lon="1.95181">
        <ele>167</ele>
        <time>2011-09-04T00:46:39Z</time>
      </trkpt>
      <trkpt lat="44.51509" lon="1.95058">
        <ele>168</ele>
        <time>2011-09-04T00:46:59Z</time>
      </trkpt>
      <trkpt lat="44.51495" lon="1.95029">
        <ele>168</ele>
        <time>2011-09-04T00:47:04Z</time>
      </trkpt>
      <trkpt lat="44.51444" lon="1.9489">
        <ele>172</ele>
        <time>2011-09-04T00:47:27Z</time>
      </trkpt>
      <trkpt lat="44.51413" lon="1.94825">
        <ele>172</ele>
        <time>2011-09-04T00:47:35Z</time>
      </trkpt>
      <trkpt lat="44.51322" lon="1.94691">
        <ele>173</ele>
        <time>2011-09-04T00:47:55Z</time>
      </trkpt>
      <trkpt lat="44.5121" lon="1.94572">
        <ele>177</ele>
        <time>2011-09-04T00:48:23Z</time>
      </trkpt>
      <trkpt lat="44.51139" lon="1.94519">
        <ele>177</ele>
        <time>2011-09-04T00:48:35Z</time>
      </trkpt>
      <trkpt lat="44.51099" lon="1.94502">
        <ele>178</ele>
        <time>2011-09-04T00:48:42Z</time>
      </trkpt>
      <trkpt lat="44.51099" lon="1.94501">
        <ele>178</ele>
        <time>2011-09-04T00:48:42Z</time>
      </trkpt>
      <trkpt lat="44.5101" lon="1.94462">
        <ele>180</ele>
        <time>2011-09-04T00:48:59Z</time>
      </trkpt>
      <trkpt lat="44.50979" lon="1.94454">
        <ele>179</ele>
        <time>2011-09-04T00:49:03Z</time>
      </trkpt>
      <trkpt lat="44.50956" lon="1.94454">
        <ele>179</ele>
        <time>2011-09-04T00:49:06Z</time>
      </trkpt>
      <trkpt lat="44.50951" lon="1.94447">
        <ele>179</ele>
        <time>2011-09-04T00:49:07Z</time>
      </trkpt>
      <trkpt lat="44.50946" lon="1.94418">
        <ele>178</ele>
        <time>2011-09-04T00:49:10Z</time>
      </trkpt>
      <trkpt lat="44.50941" lon="1.94411">
        <ele>178</ele>
        <time>2011-09-04T00:49:11Z</time>
      </trkpt>
      <trkpt lat="44.50906" lon="1.94386">
        <ele>178</ele>
        <time>2011-09-04T00:49:16Z</time>
      </trkpt>
      <trkpt lat="44.50878" lon="1.94381">
        <ele>178</ele>
        <time>2011-09-04T00:49:21Z</time>
      </trkpt>
      <trkpt lat="44.50776" lon="1.944">
        <ele>180</ele>
        <time>2011-09-04T00:49:39Z</time>
      </trkpt>
      <trkpt lat="44.50747" lon="1.94414">
        <ele>181</ele>
        <time>2011-09-04T00:49:45Z</time>
      </trkpt>
      <trkpt lat="44.50634" lon="1.9445">
        <ele>185</ele>
        <time>2011-09-04T00:50:10Z</time>
      </trkpt>
      <trkpt lat="44.50464" lon="1.94475">
        <ele>188</ele>
        <time>2011-09-04T00:50:40Z</time>
      </trkpt>
      <trkpt lat="44.50354" lon="1.94479">
        <ele>185</ele>
        <time>2011-09-04T00:50:55Z</time>
      </trkpt>
      <trkpt lat="44.50335" lon="1.94476">
        <ele>184</ele>
        <time>2011-09-04T00:50:57Z</time>
      </trkpt>
      <trkpt lat="44.50297" lon="1.94459">
        <ele>184</ele>
        <time>2011-09-04T00:51:03Z</time>
      </trkpt>
      <trkpt lat="44.50272" lon="1.94458">
        <ele>184</ele>
        <time>2011-09-04T00:51:06Z</time>
      </trkpt>
      <trkpt lat="44.49947" lon="1.94589">
        <ele>180</ele>
        <time>2011-09-04T00:51:51Z</time>
      </trkpt>
      <trkpt lat="44.49835" lon="1.94621">
        <ele>179</ele>
        <time>2011-09-04T00:52:07Z</time>
      </trkpt>
      <trkpt lat="44.49792" lon="1.94621">
        <ele>179</ele>
        <time>2011-09-04T00:52:14Z</time>
      </trkpt>
      <trkpt lat="44.49775" lon="1.94628">
        <ele>179</ele>
        <time>2011-09-04T00:52:17Z</time>
      </trkpt>
      <trkpt lat="44.49751" lon="1.94644">
        <ele>180</ele>
        <time>2011-09-04T00:52:21Z</time>
      </trkpt>
      <trkpt lat="44.49643" lon="1.94745">
        <ele>182</ele>
        <time>2011-09-04T00:52:43Z</time>
      </trkpt>
      <trkpt lat="44.49547" lon="1.94836">
        <ele>183</ele>
        <time>2011-09-04T00:53:01Z</time>
      </trkpt>
      <trkpt lat="44.495" lon="1.94887">
        <ele>183</ele>
        <time>2011-09-04T00:53:10Z</time>
      </trkpt>
      <trkpt lat="44.49437" lon="1.94988">
        <ele>185</ele>
        <time>2011-09-04T00:53:26Z</time>
      </trkpt>
      <trkpt lat="44.4942" lon="1.95025">
        <ele>185</ele>
        <time>2011-09-04T00:53:32Z</time>
      </trkpt>
      <trkpt lat="44.49341" lon="1.95283">
        <ele>189</ele>
        <time>2011-09-04T00:54:07Z</time>
      </trkpt>
      <trkpt lat="44.49329" lon="1.95304">
        <ele>190</ele>
        <time>2011-09-04T00:54:12Z</time>
      </trkpt>
      <trkpt lat="44.49288" lon="1.95335">
        <ele>192</ele>
        <time>2011-09-04T00:54:24Z</time>
      </trkpt>
      <trkpt lat="44.49076" lon="1.95442">
        <ele>205</ele>
        <time>2011-09-04T00:55:24Z</time>
      </trkpt>
      <trkpt lat="44.49009" lon="1.95501">
        <ele>211</ele>
        <time>2011-09-04T00:55:49Z</time>
      </trkpt>
      <trkpt lat="44.48852" lon="1.95572">
        <ele>224</ele>
        <time>2011-09-04T00:56:42Z</time>
      </trkpt>
      <trkpt lat="44.48829" lon="1.95593">
        <ele>227</ele>
        <time>2011-09-04T00:56:54Z</time>
      </trkpt>
      <trkpt lat="44.48796" lon="1.95633">
        <ele>232</ele>
        <time>2011-09-04T00:57:12Z</time>
      </trkpt>
      <trkpt lat="44.48764" lon="1.95691">
        <ele>239</ele>
        <time>2011-09-04T00:57:35Z</time>
      </trkpt>
      <trkpt lat="44.48706" lon="1.95752">
        <ele>244</ele>
        <time>2011-09-04T00:57:58Z</time>
      </trkpt>
      <trkpt lat="44.48685" lon="1.95786">
        <ele>247</ele>
        <time>2011-09-04T00:58:08Z</time>
      </trkpt>
      <trkpt lat="44.4867" lon="1.95821">
        <ele>249</ele>
        <time>2011-09-04T00:58:17Z</time>
      </trkpt>
      <trkpt lat="44.4866" lon="1.95833">
        <ele>250</ele>
        <time>2011-09-04T00:58:21Z</time>
      </trkpt>
      <trkpt lat="44.4862" lon="1.95848">
        <ele>253</ele>
        <time>2011-09-04T00:58:35Z</time>
      </trkpt>
      <trkpt lat="44.48474" lon="1.95981">
        <ele>267</ele>
        <time>2011-09-04T00:59:30Z</time>
      </trkpt>
      <trkpt lat="44.48403" lon="1.96201">
        <ele>287</ele>
        <time>2011-09-04T01:00:41Z</time>
      </trkpt>
      <trkpt lat="44.48394" lon="1.96214">
        <ele>287</ele>
        <time>2011-09-04T01:00:45Z</time>
      </trkpt>
      <trkpt lat="44.48372" lon="1.96222">
        <ele>288</ele>
        <time>2011-09-04T01:00:50Z</time>
      </trkpt>
      <trkpt lat="44.4832" lon="1.96204">
        <ele>291</ele>
        <time>2011-09-04T01:01:04Z</time>
      </trkpt>
      <trkpt lat="44.48272" lon="1.96231">
        <ele>294</ele>
        <time>2011-09-04T01:01:17Z</time>
      </trkpt>
      <trkpt lat="44.48259" lon="1.96233">
        <ele>294</ele>
        <time>2011-09-04T01:01:21Z</time>
      </trkpt>
      <trkpt lat="44.48205" lon="1.96217">
        <ele>298</ele>
        <time>2011-09-04T01:01:37Z</time>
      </trkpt>
      <trkpt lat="44.48184" lon="1.9622">
        <ele>299</ele>
        <time>2011-09-04T01:01:43Z</time>
      </trkpt>
      <trkpt lat="44.48171" lon="1.96232">
        <ele>301</ele>
        <time>2011-09-04T01:01:48Z</time>
      </trkpt>
      <trkpt lat="44.48116" lon="1.96328">
        <ele>305</ele>
        <time>2011-09-04T01:02:10Z</time>
      </trkpt>
      <trkpt lat="44.48075" lon="1.96369">
        <ele>308</ele>
        <time>2011-09-04T01:02:23Z</time>
      </trkpt>
      <trkpt lat="44.48046" lon="1.96372">
        <ele>308</ele>
        <time>2011-09-04T01:02:28Z</time>
      </trkpt>
      <trkpt lat="44.47936" lon="1.96358">
        <ele>311</ele>
        <time>2011-09-04T01:02:49Z</time>
      </trkpt>
      <trkpt lat="44.47874" lon="1.96359">
        <ele>313</ele>
        <time>2011-09-04T01:03:03Z</time>
      </trkpt>
      <trkpt lat="44.47433" lon="1.96435">
        <ele>332</ele>
        <time>2011-09-04T01:04:47Z</time>
      </trkpt>
      <trkpt lat="44.47408" lon="1.96433">
        <ele>333</ele>
        <time>2011-09-04T01:04:54Z</time>
      </trkpt>
      <trkpt lat="44.47382" lon="1.96421">
        <ele>335</ele>
        <time>2011-09-04T01:05:02Z</time>
      </trkpt>
      <trkpt lat="44.47262" lon="1.96325">
        <ele>345</ele>
        <time>2011-09-04T01:05:44Z</time>
      </trkpt>
      <trkpt lat="44.47103" lon="1.96211">
        <ele>343</ele>
        <time>2011-09-04T01:06:07Z</time>
      </trkpt>
      <trkpt lat="44.47084" lon="1.96206">
        <ele>341</ele>
        <time>2011-09-04T01:06:10Z</time>
      </trkpt>
      <trkpt lat="44.47018" lon="1.96231">
        <ele>338</ele>
        <time>2011-09-04T01:06:19Z</time>
      </trkpt>
      <trkpt lat="44.46994" lon="1.96234">
        <ele>337</ele>
        <time>2011-09-04T01:06:22Z</time>
      </trkpt>
      <trkpt lat="44.46902" lon="1.96201">
        <ele>330</ele>
        <time>2011-09-04T01:06:35Z</time>
      </trkpt>
      <trkpt lat="44.4686" lon="1.9616">
        <ele>330</ele>
        <time>2011-09-04T01:06:42Z</time>
      </trkpt>
      <trkpt lat="44.46828" lon="1.96147">
        <ele>330</ele>
        <time>2011-09-04T01:06:46Z</time>
      </trkpt>
      <trkpt lat="44.46773" lon="1.96139">
        <ele>330</ele>
        <time>2011-09-04T01:06:54Z</time>
      </trkpt>
      <trkpt lat="44.46737" lon="1.96159">
        <ele>331</ele>
        <time>2011-09-04T01:07:01Z</time>
      </trkpt>
      <trkpt lat="44.46713" lon="1.96157">
        <ele>331</ele>
        <time>2011-09-04T01:07:06Z</time>
      </trkpt>
      <trkpt lat="44.46677" lon="1.96111">
        <ele>333</ele>
        <time>2011-09-04T01:07:16Z</time>
      </trkpt>
      <trkpt lat="44.46619" lon="1.96103">
        <ele>331</ele>
        <time>2011-09-04T01:07:24Z</time>
      </trkpt>
      <trkpt lat="44.46606" lon="1.96095">
        <ele>330</ele>
        <time>2011-09-04T01:07:25Z</time>
      </trkpt>
      <trkpt lat="44.46479" lon="1.95927">
        <ele>326</ele>
        <time>2011-09-04T01:07:49Z</time>
      </trkpt>
      <trkpt lat="44.46261" lon="1.95862">
        <ele>330</ele>
        <time>2011-09-04T01:08:28Z</time>
      </trkpt>
      <trkpt lat="44.4611" lon="1.95776">
        <ele>340</ele>
        <time>2011-09-04T01:09:14Z</time>
      </trkpt>
      <trkpt lat="44.46073" lon="1.95768">
        <ele>342</ele>
        <time>2011-09-04T01:09:25Z</time>
      </trkpt>
      <trkpt lat="44.46039" lon="1.95767">
        <ele>345</ele>
        <time>2011-09-04T01:09:36Z</time>
      </trkpt>
      <trkpt lat="44.45981" lon="1.95724">
        <ele>350</ele>
        <time>2011-09-04T01:09:56Z</time>
      </trkpt>
      <trkpt lat="44.45961" lon="1.95727">
        <ele>352</ele>
        <time>2011-09-04T01:10:04Z</time>
      </trkpt>
      <trkpt lat="44.45902" lon="1.95773">
        <ele>359</ele>
        <time>2011-09-04T01:10:30Z</time>
      </trkpt>
      <trkpt lat="44.45893" lon="1.95777">
        <ele>360</ele>
        <time>2011-09-04T01:10:33Z</time>
      </trkpt>
      <trkpt lat="44.45881" lon="1.95774">
        <ele>360</ele>
        <time>2011-09-04T01:10:36Z</time>
      </trkpt>
      <trkpt lat="44.45788" lon="1.95706">
        <ele>364</ele>
        <time>2011-09-04T01:10:58Z</time>
      </trkpt>
      <trkpt lat="44.45689" lon="1.95662">
        <ele>371</ele>
        <time>2011-09-04T01:11:29Z</time>
      </trkpt>
      <trkpt lat="44.45574" lon="1.9562">
        <ele>377</ele>
        <time>2011-09-04T01:11:59Z</time>
      </trkpt>
      <trkpt lat="44.45508" lon="1.95576">
        <ele>380</ele>
        <time>2011-09-04T01:12:18Z</time>
      </trkpt>
      <trkpt lat="44.45384" lon="1.95504">
        <ele>387</ele>
        <time>2011-09-04T01:12:51Z</time>
      </trkpt>
      <trkpt lat="44.45304" lon="1.95447">
        <ele>382</ele>
        <time>2011-09-04T01:13:03Z</time>
      </trkpt>
      <trkpt lat="44.4524" lon="1.95378">
        <ele>378</ele>
        <time>2011-09-04T01:13:14Z</time>
      </trkpt>
      <trkpt lat="44.45142" lon="1.95238">
        <ele>370</ele>
        <time>2011-09-04T01:13:33Z</time>
      </trkpt>
      <trkpt lat="44.45121" lon="1.95199">
        <ele>370</ele>
        <time>2011-09-04T01:13:38Z</time>
      </trkpt>
      <trkpt lat="44.45123" lon="1.95154">
        <ele>370</ele>
        <time>2011-09-04T01:13:43Z</time>
      </trkpt>
      <trkpt lat="44.45163" lon="1.95">
        <ele>372</ele>
        <time>2011-09-04T01:14:02Z</time>
      </trkpt>
      <trkpt lat="44.45163" lon="1.94979">
        <ele>371</ele>
        <time>2011-09-04T01:14:04Z</time>
      </trkpt>
      <trkpt lat="44.45158" lon="1.9496">
        <ele>371</ele>
        <time>2011-09-04T01:14:06Z</time>
      </trkpt>
      <trkpt lat="44.45142" lon="1.9494">
        <ele>371</ele>
        <time>2011-09-04T01:14:09Z</time>
      </trkpt>
      <trkpt lat="44.45087" lon="1.94903">
        <ele>371</ele>
        <time>2011-09-04T01:14:17Z</time>
      </trkpt>
      <trkpt lat="44.45069" lon="1.94881">
        <ele>371</ele>
        <time>2011-09-04T01:14:22Z</time>
      </trkpt>
      <trkpt lat="44.45004" lon="1.94705">
        <ele>376</ele>
        <time>2011-09-04T01:14:51Z</time>
      </trkpt>
      <trkpt lat="44.44933" lon="1.94542">
        <ele>373</ele>
        <time>2011-09-04T01:15:09Z</time>
      </trkpt>
      <trkpt lat="44.44784" lon="1.9435">
        <ele>380</ele>
        <time>2011-09-04T01:15:53Z</time>
      </trkpt>
      <trkpt lat="44.44752" lon="1.94263">
        <ele>380</ele>
        <time>2011-09-04T01:16:04Z</time>
      </trkpt>
      <trkpt lat="44.44663" lon="1.9418">
        <ele>382</ele>
        <time>2011-09-04T01:16:21Z</time>
      </trkpt>
      <trkpt lat="44.44649" lon="1.9416">
        <ele>382</ele>
        <time>2011-09-04T01:16:24Z</time>
      </trkpt>
      <trkpt lat="44.44618" lon="1.9415">
        <ele>382</ele>
        <time>2011-09-04T01:16:28Z</time>
      </trkpt>
      <trkpt lat="44.44569" lon="1.94111">
        <ele>382</ele>
        <time>2011-09-04T01:16:36Z</time>
      </trkpt>
      <trkpt lat="44.44492" lon="1.93994">
        <ele>381</ele>
        <time>2011-09-04T01:16:51Z</time>
      </trkpt>
      <trkpt lat="44.44467" lon="1.93975">
        <ele>380</ele>
        <time>2011-09-04T01:16:55Z</time>
      </trkpt>
      <trkpt lat="44.44328" lon="1.93937">
        <ele>380</ele>
        <time>2011-09-04T01:17:14Z</time>
      </trkpt>
      <trkpt lat="44.44119" lon="1.93928">
        <ele>377</ele>
        <time>2011-09-04T01:17:42Z</time>
      </trkpt>
      <trkpt lat="44.44082" lon="1.93904">
        <ele>377</ele>
        <time>2011-09-04T01:17:48Z</time>
      </trkpt>
      <trkpt lat="44.44016" lon="1.93832">
        <ele>378</ele>
        <time>2011-09-04T01:18:01Z</time>
      </trkpt>
      <trkpt lat="44.43986" lon="1.93809">
        <ele>378</ele>
        <time>2011-09-04T01:18:07Z</time>
      </trkpt>
      <trkpt lat="44.4395" lon="1.93795">
        <ele>379</ele>
        <time>2011-09-04T01:18:14Z</time>
      </trkpt>
      <trkpt lat="44.43838" lon="1.93771">
        <ele>382</ele>
        <time>2011-09-04T01:18:35Z</time>
      </trkpt>
      <trkpt lat="44.43838" lon="1.93771">
        <ele>382</ele>
        <time>2011-09-04T01:18:36Z</time>
      </trkpt>
      <trkpt lat="44.43807" lon="1.93763">
        <ele>380</ele>
        <time>2011-09-04T01:18:40Z</time>
      </trkpt>
      <trkpt lat="44.43782" lon="1.93767">
        <ele>379</ele>
        <time>2011-09-04T01:18:44Z</time>
      </trkpt>
      <trkpt lat="44.43753" lon="1.93789">
        <ele>377</ele>
        <time>2011-09-04T01:18:48Z</time>
      </trkpt>
      <trkpt lat="44.43722" lon="1.93827">
        <ele>376</ele>
        <time>2011-09-04T01:18:54Z</time>
      </trkpt>
      <trkpt lat="44.43709" lon="1.9385">
        <ele>375</ele>
        <time>2011-09-04T01:18:56Z</time>
      </trkpt>
      <trkpt lat="44.43637" lon="1.94046">
        <ele>373</ele>
        <time>2011-09-04T01:19:17Z</time>
      </trkpt>
      <trkpt lat="44.43582" lon="1.94171">
        <ele>372</ele>
        <time>2011-09-04T01:19:31Z</time>
      </trkpt>
      <trkpt lat="44.43533" lon="1.94266">
        <ele>372</ele>
        <time>2011-09-04T01:19:43Z</time>
      </trkpt>
      <trkpt lat="44.43513" lon="1.9429">
        <ele>372</ele>
        <time>2011-09-04T01:19:46Z</time>
      </trkpt>
      <trkpt lat="44.43459" lon="1.94334">
        <ele>374</ele>
        <time>2011-09-04T01:20:00Z</time>
      </trkpt>
      <trkpt lat="44.43295" lon="1.94435">
        <ele>381</ele>
        <time>2011-09-04T01:20:40Z</time>
      </trkpt>
      <trkpt lat="44.43199" lon="1.94502">
        <ele>385</ele>
        <time>2011-09-04T01:21:04Z</time>
      </trkpt>
      <trkpt lat="44.43014" lon="1.9465">
        <ele>388</ele>
        <time>2011-09-04T01:21:40Z</time>
      </trkpt>
      <trkpt lat="44.42963" lon="1.94694">
        <ele>390</ele>
        <time>2011-09-04T01:21:53Z</time>
      </trkpt>
      <trkpt lat="44.42919" lon="1.94741">
        <ele>392</ele>
        <time>2011-09-04T01:22:05Z</time>
      </trkpt>
      <trkpt lat="44.4284" lon="1.94846">
        <ele>393</ele>
        <time>2011-09-04T01:22:21Z</time>
      </trkpt>
      <trkpt lat="44.42811" lon="1.94895">
        <ele>392</ele>
        <time>2011-09-04T01:22:28Z</time>
      </trkpt>
      <trkpt lat="44.42638" lon="1.9525">
        <ele>387</ele>
        <time>2011-09-04T01:23:09Z</time>
      </trkpt>
      <trkpt lat="44.42549" lon="1.95402">
        <ele>386</ele>
        <time>2011-09-04T01:23:27Z</time>
      </trkpt>
      <trkpt lat="44.42475" lon="1.95504">
        <ele>388</ele>
        <time>2011-09-04T01:23:46Z</time>
      </trkpt>
      <trkpt lat="44.42221" lon="1.95804">
        <ele>391</ele>
        <time>2011-09-04T01:24:38Z</time>
      </trkpt>
      <trkpt lat="44.42128" lon="1.95921">
        <ele>393</ele>
        <time>2011-09-04T01:24:59Z</time>
      </trkpt>
      <trkpt lat="44.42001" lon="1.96064">
        <ele>396</ele>
        <time>2011-09-04T01:25:28Z</time>
      </trkpt>
      <trkpt lat="44.41925" lon="1.96114">
        <ele>392</ele>
        <time>2011-09-04T01:25:39Z</time>
      </trkpt>
      <trkpt lat="44.41592" lon="1.96307">
        <ele>380</ele>
        <time>2011-09-04T01:26:27Z</time>
      </trkpt>
      <trkpt lat="44.41545" lon="1.96341">
        <ele>378</ele>
        <time>2011-09-04T01:26:34Z</time>
      </trkpt>
      <trkpt lat="44.41483" lon="1.96398">
        <ele>377</ele>
        <time>2011-09-04T01:26:44Z</time>
      </trkpt>
      <trkpt lat="44.41453" lon="1.9644">
        <ele>374</ele>
        <time>2011-09-04T01:26:50Z</time>
      </trkpt>
      <trkpt lat="44.41439" lon="1.96468">
        <ele>373</ele>
        <time>2011-09-04T01:26:53Z</time>
      </trkpt>
      <trkpt lat="44.41357" lon="1.96729">
        <ele>362</ele>
        <time>2011-09-04T01:27:21Z</time>
      </trkpt>
      <trkpt lat="44.41343" lon="1.96752">
        <ele>361</ele>
        <time>2011-09-04T01:27:23Z</time>
      </trkpt>
      <trkpt lat="44.41314" lon="1.96779">
        <ele>361</ele>
        <time>2011-09-04T01:27:28Z</time>
      </trkpt>
      <trkpt lat="44.41179" lon="1.96827">
        <ele>359</ele>
        <time>2011-09-04T01:27:47Z</time>
      </trkpt>
      <trkpt lat="44.41156" lon="1.96838">
        <ele>359</ele>
        <time>2011-09-04T01:27:50Z</time>
      </trkpt>
      <trkpt lat="44.41135" lon="1.96856">
        <ele>359</ele>
        <time>2011-09-04T01:27:54Z</time>
      </trkpt>
      <trkpt lat="44.40958" lon="1.97086">
        <ele>362</ele>
        <time>2011-09-04T01:28:33Z</time>
      </trkpt>
      <trkpt lat="44.40843" lon="1.97263">
        <ele>366</ele>
        <time>2011-09-04T01:29:05Z</time>
      </trkpt>
      <trkpt lat="44.40812" lon="1.97298">
        <ele>366</ele>
        <time>2011-09-04T01:29:10Z</time>
      </trkpt>
      <trkpt lat="44.40789" lon="1.97308">
        <ele>366</ele>
        <time>2011-09-04T01:29:14Z</time>
      </trkpt>
      <trkpt lat="44.40751" lon="1.97313">
        <ele>366</ele>
        <time>2011-09-04T01:29:19Z</time>
      </trkpt>
      <trkpt lat="44.40564" lon="1.97323">
        <ele>369</ele>
        <time>2011-09-04T01:29:51Z</time>
      </trkpt>
      <trkpt lat="44.40379" lon="1.974">
        <ele>378</ele>
        <time>2011-09-04T01:30:38Z</time>
      </trkpt>
      <trkpt lat="44.40301" lon="1.9744">
        <ele>376</ele>
        <time>2011-09-04T01:30:49Z</time>
      </trkpt>
      <trkpt lat="44.40043" lon="1.97508">
        <ele>372</ele>
        <time>2011-09-04T01:31:24Z</time>
      </trkpt>
      <trkpt lat="44.40021" lon="1.97509">
        <ele>371</ele>
        <time>2011-09-04T01:31:27Z</time>
      </trkpt>
      <trkpt lat="44.39994" lon="1.97498">
        <ele>371</ele>
        <time>2011-09-04T01:31:31Z</time>
      </trkpt>
      <trkpt lat="44.39892" lon="1.9741">
        <ele>370</ele>
        <time>2011-09-04T01:31:47Z</time>
      </trkpt>
      <trkpt lat="44.39869" lon="1.97405">
        <ele>370</ele>
        <time>2011-09-04T01:31:52Z</time>
      </trkpt>
      <trkpt lat="44.39842" lon="1.97413">
        <ele>371</ele>
        <time>2011-09-04T01:31:57Z</time>
      </trkpt>
      <trkpt lat="44.39681" lon="1.97521">
        <ele>376</ele>
        <time>2011-09-04T01:32:32Z</time>
      </trkpt>
      <trkpt lat="44.39629" lon="1.97541">
        <ele>376</ele>
        <time>2011-09-04T01:32:39Z</time>
      </trkpt>
      <trkpt lat="44.39363" lon="1.97522">
        <ele>376</ele>
        <time>2011-09-04T01:33:15Z</time>
      </trkpt>
      <trkpt lat="44.39302" lon="1.97527">
        <ele>377</ele>
        <time>2011-09-04T01:33:26Z</time>
      </trkpt>
      <trkpt lat="44.39256" lon="1.9755">
        <ele>378</ele>
        <time>2011-09-04T01:33:34Z</time>
      </trkpt>
      <trkpt lat="44.39095" lon="1.97677">
        <ele>373</ele>
        <time>2011-09-04T01:33:59Z</time>
      </trkpt>
      <trkpt lat="44.39053" lon="1.97736">
        <ele>371</ele>
        <time>2011-09-04T01:34:07Z</time>
      </trkpt>
      <trkpt lat="44.38989" lon="1.97841">
        <ele>368</ele>
        <time>2011-09-04T01:34:20Z</time>
      </trkpt>
      <trkpt lat="44.38917" lon="1.98002">
        <ele>362</ele>
        <time>2011-09-04T01:34:38Z</time>
      </trkpt>
      <trkpt lat="44.389" lon="1.9803">
        <ele>360</ele>
        <time>2011-09-04T01:34:42Z</time>
      </trkpt>
      <trkpt lat="44.3887" lon="1.98057">
        <ele>359</ele>
        <time>2011-09-04T01:34:47Z</time>
      </trkpt>
      <trkpt lat="44.3877" lon="1.98115">
        <ele>355</ele>
        <time>2011-09-04T01:35:01Z</time>
      </trkpt>
      <trkpt lat="44.38646" lon="1.98216">
        <ele>350</ele>
        <time>2011-09-04T01:35:20Z</time>
      </trkpt>
      <trkpt lat="44.38526" lon="1.9834">
        <ele>346</ele>
        <time>2011-09-04T01:35:40Z</time>
      </trkpt>
      <trkpt lat="44.38436" lon="1.98415">
        <ele>343</ele>
        <time>2011-09-04T01:35:54Z</time>
      </trkpt>
      <trkpt lat="44.38398" lon="1.98466">
        <ele>340</ele>
        <time>2011-09-04T01:36:01Z</time>
      </trkpt>
      <trkpt lat="44.38375" lon="1.98514">
        <ele>338</ele>
        <time>2011-09-04T01:36:07Z</time>
      </trkpt>
      <trkpt lat="44.38274" lon="1.98764">
        <ele>338</ele>
        <time>2011-09-04T01:36:34Z</time>
      </trkpt>
      <trkpt lat="44.38249" lon="1.98883">
        <ele>337</ele>
        <time>2011-09-04T01:36:46Z</time>
      </trkpt>
      <trkpt lat="44.38234" lon="1.9893">
        <ele>337</ele>
        <time>2011-09-04T01:36:51Z</time>
      </trkpt>
      <trkpt lat="44.38167" lon="1.99043">
        <ele>334</ele>
        <time>2011-09-04T01:37:05Z</time>
      </trkpt>
      <trkpt lat="44.38113" lon="1.99173">
        <ele>328</ele>
        <time>2011-09-04T01:37:19Z</time>
      </trkpt>
      <trkpt lat="44.38102" lon="1.99213">
        <ele>326</ele>
        <time>2011-09-04T01:37:23Z</time>
      </trkpt>
      <trkpt lat="44.38103" lon="1.99239">
        <ele>325</ele>
        <time>2011-09-04T01:37:26Z</time>
      </trkpt>
      <trkpt lat="44.38113" lon="1.99267">
        <ele>324</ele>
        <time>2011-09-04T01:37:29Z</time>
      </trkpt>
      <trkpt lat="44.38138" lon="1.99312">
        <ele>322</ele>
        <time>2011-09-04T01:37:34Z</time>
      </trkpt>
      <trkpt lat="44.38182" lon="1.99375">
        <ele>320</ele>
        <time>2011-09-04T01:37:43Z</time>
      </trkpt>
      <trkpt lat="44.38212" lon="1.99428">
        <ele>320</ele>
        <time>2011-09-04T01:37:49Z</time>
      </trkpt>
      <trkpt lat="44.38228" lon="1.99467">
        <ele>318</ele>
        <time>2011-09-04T01:37:54Z</time>
      </trkpt>
      <trkpt lat="44.38237" lon="1.99515">
        <ele>316</ele>
        <time>2011-09-04T01:37:58Z</time>
      </trkpt>
      <trkpt lat="44.3824" lon="1.99558">
        <ele>315</ele>
        <time>2011-09-04T01:38:02Z</time>
      </trkpt>
      <trkpt lat="44.38237" lon="1.99677">
        <ele>310</ele>
        <time>2011-09-04T01:38:14Z</time>
      </trkpt>
      <trkpt lat="44.38237" lon="1.99677">
        <ele>310</ele>
        <time>2011-09-04T01:38:15Z</time>
      </trkpt>
      <trkpt lat="44.38232" lon="1.99847">
        <ele>309</ele>
        <time>2011-09-04T01:38:31Z</time>
      </trkpt>
      <trkpt lat="44.38219" lon="1.99876">
        <ele>308</ele>
        <time>2011-09-04T01:38:34Z</time>
      </trkpt>
      <trkpt lat="44.38183" lon="1.99925">
        <ele>308</ele>
        <time>2011-09-04T01:38:41Z</time>
      </trkpt>
      <trkpt lat="44.38107" lon="2.00144">
        <ele>308</ele>
        <time>2011-09-04T01:39:04Z</time>
      </trkpt>
      <trkpt lat="44.38037" lon="2.00314">
        <ele>308</ele>
        <time>2011-09-04T01:39:23Z</time>
      </trkpt>
      <trkpt lat="44.37987" lon="2.00417">
        <ele>305</ele>
        <time>2011-09-04T01:39:35Z</time>
      </trkpt>
      <trkpt lat="44.37872" lon="2.0058">
        <ele>300</ele>
        <time>2011-09-04T01:39:57Z</time>
      </trkpt>
      <trkpt lat="44.37787" lon="2.00708">
        <ele>297</ele>
        <time>2011-09-04T01:40:13Z</time>
      </trkpt>
      <trkpt lat="44.37756" lon="2.00763">
        <ele>296</ele>
        <time>2011-09-04T01:40:20Z</time>
      </trkpt>
      <trkpt lat="44.3768" lon="2.0096">
        <ele>296</ele>
        <time>2011-09-04T01:40:41Z</time>
      </trkpt>
      <trkpt lat="44.37665" lon="2.00979">
        <ele>295</ele>
        <time>2011-09-04T01:40:44Z</time>
      </trkpt>
      <trkpt lat="44.37656" lon="2.00982">
        <ele>295</ele>
        <time>2011-09-04T01:40:45Z</time>
      </trkpt>
      <trkpt lat="44.37649" lon="2.00994">
        <ele>295</ele>
        <time>2011-09-04T01:40:47Z</time>
      </trkpt>
      <trkpt lat="44.37652" lon="2.01017">
        <ele>295</ele>
        <time>2011-09-04T01:40:49Z</time>
      </trkpt>
      <trkpt lat="44.37645" lon="2.01058">
        <ele>295</ele>
        <time>2011-09-04T01:40:53Z</time>
      </trkpt>
      <trkpt lat="44.37597" lon="2.01181">
        <ele>294</ele>
        <time>2011-09-04T01:41:06Z</time>
      </trkpt>
      <trkpt lat="44.37568" lon="2.01232">
        <ele>294</ele>
        <time>2011-09-04T01:41:13Z</time>
      </trkpt>
      <trkpt lat="44.37496" lon="2.01315">
        <ele>294</ele>
        <time>2011-09-04T01:41:25Z</time>
      </trkpt>
      <trkpt lat="44.37227" lon="2.01482">
        <ele>291</ele>
        <time>2011-09-04T01:42:04Z</time>
      </trkpt>
      <trkpt lat="44.37076" lon="2.01623">
        <ele>288</ele>
        <time>2011-09-04T01:42:29Z</time>
      </trkpt>
      <trkpt lat="44.37053" lon="2.01629">
        <ele>287</ele>
        <time>2011-09-04T01:42:32Z</time>
      </trkpt>
      <trkpt lat="44.37028" lon="2.01625">
        <ele>287</ele>
        <time>2011-09-04T01:42:35Z</time>
      </trkpt>
      <trkpt lat="44.36846" lon="2.01568">
        <ele>287</ele>
        <time>2011-09-04T01:43:00Z</time>
      </trkpt>
      <trkpt lat="44.36792" lon="2.0156">
        <ele>285</ele>
        <time>2011-09-04T01:43:07Z</time>
      </trkpt>
      <trkpt lat="44.36754" lon="2.01564">
        <ele>285</ele>
        <time>2011-09-04T01:43:12Z</time>
      </trkpt>
      <trkpt lat="44.3673" lon="2.01572">
        <ele>284</ele>
        <time>2011-09-04T01:43:16Z</time>
      </trkpt>
      <trkpt lat="44.36707" lon="2.01581">
        <ele>284</ele>
        <time>2011-09-04T01:43:19Z</time>
      </trkpt>
      <trkpt lat="44.36661" lon="2.01611">
        <ele>283</ele>
        <time>2011-09-04T01:43:26Z</time>
      </trkpt>
      <trkpt lat="44.364" lon="2.01843">
        <ele>282</ele>
        <time>2011-09-04T01:44:07Z</time>
      </trkpt>
      <trkpt lat="44.3633" lon="2.01925">
        <ele>282</ele>
        <time>2011-09-04T01:44:19Z</time>
      </trkpt>
      <trkpt lat="44.36124" lon="2.02293">
        <ele>278</ele>
        <time>2011-09-04T01:45:04Z</time>
      </trkpt>
      <trkpt lat="44.36088" lon="2.0235">
        <ele>278</ele>
        <time>2011-09-04T01:45:12Z</time>
      </trkpt>
      <trkpt lat="44.35911" lon="2.02683">
        <ele>279</ele>
        <time>2011-09-04T01:45:53Z</time>
      </trkpt>
      <trkpt lat="44.35851" lon="2.02765">
        <ele>279</ele>
        <time>2011-09-04T01:46:06Z</time>
      </trkpt>
      <trkpt lat="44.35603" lon="2.02957">
        <ele>282</ele>
        <time>2011-09-04T01:46:49Z</time>
      </trkpt>
      <trkpt lat="44.35579" lon="2.02965">
        <ele>282</ele>
        <time>2011-09-04T01:46:53Z</time>
      </trkpt>
      <trkpt lat="44.35573" lon="2.02953">
        <ele>282</ele>
        <time>2011-09-04T01:46:54Z</time>
      </trkpt>
      <trkpt lat="44.35562" lon="2.02957">
        <ele>282</ele>
        <time>2011-09-04T01:46:56Z</time>
      </trkpt>
      <trkpt lat="44.35562" lon="2.02971">
        <ele>282</ele>
        <time>2011-09-04T01:46:57Z</time>
      </trkpt>
      <trkpt lat="44.35568" lon="2.02978">
        <ele>282</ele>
        <time>2011-09-04T01:46:58Z</time>
      </trkpt>
      <trkpt lat="44.35494" lon="2.03076">
        <ele>282</ele>
        <time>2011-09-04T01:47:12Z</time>
      </trkpt>
      <trkpt lat="44.35463" lon="2.03133">
        <ele>282</ele>
        <time>2011-09-04T01:47:19Z</time>
      </trkpt>
      <trkpt lat="44.35386" lon="2.03329">
        <ele>283</ele>
        <time>2011-09-04T01:47:42Z</time>
      </trkpt>
      <trkpt lat="44.35349" lon="2.03467">
        <ele>282</ele>
        <time>2011-09-04T01:47:56Z</time>
      </trkpt>
      <trkpt lat="44.35334" lon="2.03477">
        <ele>280</ele>
        <time>2011-09-04T01:47:59Z</time>
      </trkpt>
      <trkpt lat="44.35298" lon="2.03424">
        <ele>275</ele>
        <time>2011-09-04T01:48:06Z</time>
      </trkpt>
      <trkpt lat="44.35286" lon="2.03413">
        <ele>274</ele>
        <time>2011-09-04T01:48:07Z</time>
      </trkpt>
      <trkpt lat="44.35269" lon="2.03412">
        <ele>272</ele>
        <time>2011-09-04T01:48:10Z</time>
      </trkpt>
      <trkpt lat="44.35239" lon="2.03421">
        <ele>270</ele>
        <time>2011-09-04T01:48:14Z</time>
      </trkpt>
      <trkpt lat="44.35184" lon="2.03437">
        <ele>267</ele>
        <time>2011-09-04T01:48:21Z</time>
      </trkpt>
      <trkpt lat="44.3515" lon="2.03453">
        <ele>266</ele>
        <time>2011-09-04T01:48:26Z</time>
      </trkpt>
      <trkpt lat="44.35032" lon="2.03556">
        <ele>261</ele>
        <time>2011-09-04T01:48:45Z</time>
      </trkpt>
      <trkpt lat="44.35007" lon="2.03508">
        <ele>260</ele>
        <time>2011-09-04T01:48:50Z</time>
      </trkpt>
      <trkpt lat="44.34982" lon="2.03433">
        <ele>260</ele>
        <time>2011-09-04T01:48:58Z</time>
      </trkpt>
      <trkpt lat="44.34928" lon="2.03305">
        <ele>257</ele>
        <time>2011-09-04T01:49:12Z</time>
      </trkpt>
      <trkpt lat="44.3491" lon="2.0333">
        <ele>257</ele>
        <time>2011-09-04T01:49:16Z</time>
      </trkpt>
      <trkpt lat="44.34909" lon="2.03341">
        <ele>257</ele>
        <time>2011-09-04T01:49:17Z</time>
      </trkpt>
      <trkpt lat="44.3493" lon="2.03441">
        <ele>257</ele>
        <time>2011-09-04T01:49:27Z</time>
      </trkpt>
      <trkpt lat="44.3493" lon="2.03441">
        <ele>257</ele>
        <time>2011-09-04T01:49:28Z</time>
      </trkpt>
      <trkpt lat="44.34909" lon="2.03341">
        <ele>257</ele>
        <time>2011-09-04T01:49:38Z</time>
      </trkpt>
      <trkpt lat="44.3491" lon="2.0333">
        <ele>257</ele>
        <time>2011-09-04T01:49:39Z</time>
      </trkpt>
      <trkpt lat="44.34928" lon="2.03305">
        <ele>257</ele>
        <time>2011-09-04T01:49:42Z</time>
      </trkpt>
      <trkpt lat="44.34914" lon="2.0324">
        <ele>255</ele>
        <time>2011-09-04T01:49:49Z</time>
      </trkpt>
      <trkpt lat="44.34888" lon="2.03176">
        <ele>254</ele>
        <time>2011-09-04T01:49:56Z</time>
      </trkpt>
      <trkpt lat="44.34891" lon="2.03161">
        <ele>254</ele>
        <time>2011-09-04T01:49:58Z</time>
      </trkpt>
      <trkpt lat="44.34887" lon="2.03155">
        <ele>254</ele>
        <time>2011-09-04T01:49:59Z</time>
      </trkpt>
      <trkpt lat="44.34894" lon="2.03114">
        <ele>255</ele>
        <time>2011-09-04T01:50:05Z</time>
      </trkpt>
      <trkpt lat="44.34935" lon="2.02959">
        <ele>258</ele>
        <time>2011-09-04T01:50:27Z</time>
      </trkpt>
      <trkpt lat="44.34934" lon="2.02929">
        <ele>257</ele>
        <time>2011-09-04T01:50:30Z</time>
      </trkpt>
      <trkpt lat="44.34866" lon="2.02853">
        <ele>255</ele>
        <time>2011-09-04T01:50:42Z</time>
      </trkpt>
      <trkpt lat="44.34838" lon="2.02843">
        <ele>254</ele>
        <time>2011-09-04T01:50:46Z</time>
      </trkpt>
      <trkpt lat="44.34807" lon="2.02852">
        <ele>254</ele>
        <time>2011-09-04T01:50:50Z</time>
      </trkpt>
      <trkpt lat="44.34742" lon="2.02895">
        <ele>254</ele>
        <time>2011-09-04T01:51:00Z</time>
      </trkpt>
      <trkpt lat="44.34677" lon="2.02763">
        <ele>254</ele>
        <time>2011-09-04T01:51:15Z</time>
      </trkpt>
      <trkpt lat="44.34635" lon="2.02702">
        <ele>253</ele>
        <time>2011-09-04T01:51:23Z</time>
      </trkpt>
      <trkpt lat="44.34567" lon="2.02616">
        <ele>253</ele>
        <time>2011-09-04T01:51:35Z</time>
      </trkpt>
      <trkpt lat="44.34549" lon="2.026">
        <ele>253</ele>
        <time>2011-09-04T01:51:40Z</time>
      </trkpt>
      <trkpt lat="44.34502" lon="2.02574">
        <ele>255</ele>
        <time>2011-09-04T01:51:51Z</time>
      </trkpt>
      <trkpt lat="44.34314" lon="2.02481">
        <ele>263</ele>
        <time>2011-09-04T01:52:36Z</time>
      </trkpt>
      <trkpt lat="44.34129" lon="2.02456">
        <ele>266</ele>
        <time>2011-09-04T01:53:08Z</time>
      </trkpt>
      <trkpt lat="44.34065" lon="2.02453">
        <ele>266</ele>
        <time>2011-09-04T01:53:16Z</time>
      </trkpt>
      <trkpt lat="44.34015" lon="2.02473">
        <ele>266</ele>
        <time>2011-09-04T01:53:23Z</time>
      </trkpt>
      <trkpt lat="44.33797" lon="2.02587">
        <ele>265</ele>
        <time>2011-09-04T01:53:54Z</time>
      </trkpt>
      <trkpt lat="44.33772" lon="2.02589">
        <ele>264</ele>
        <time>2011-09-04T01:53:58Z</time>
      </trkpt>
      <trkpt lat="44.33756" lon="2.0258">
        <ele>264</ele>
        <time>2011-09-04T01:54:00Z</time>
      </trkpt>
      <trkpt lat="44.33741" lon="2.0255">
        <ele>264</ele>
        <time>2011-09-04T01:54:03Z</time>
      </trkpt>
      <trkpt lat="44.33738" lon="2.02533">
        <ele>263</ele>
        <time>2011-09-04T01:54:05Z</time>
      </trkpt>
      <trkpt lat="44.33722" lon="2.02259">
        <ele>261</ele>
        <time>2011-09-04T01:54:31Z</time>
      </trkpt>
      <trkpt lat="44.33704" lon="2.02194">
        <ele>261</ele>
        <time>2011-09-04T01:54:39Z</time>
      </trkpt>
      <trkpt lat="44.33668" lon="2.02142">
        <ele>262</ele>
        <time>2011-09-04T01:54:47Z</time>
      </trkpt>
      <trkpt lat="44.33633" lon="2.02106">
        <ele>260</ele>
        <time>2011-09-04T01:54:53Z</time>
      </trkpt>
      <trkpt lat="44.33329" lon="2.01819">
        <ele>250</ele>
        <time>2011-09-04T01:55:42Z</time>
      </trkpt>
      <trkpt lat="44.33294" lon="2.01791">
        <ele>249</ele>
        <time>2011-09-04T01:55:47Z</time>
      </trkpt>
      <trkpt lat="44.33236" lon="2.01758">
        <ele>248</ele>
        <time>2011-09-04T01:55:56Z</time>
      </trkpt>
      <trkpt lat="44.33221" lon="2.01742">
        <ele>248</ele>
        <time>2011-09-04T01:55:58Z</time>
      </trkpt>
      <trkpt lat="44.33208" lon="2.0172">
        <ele>248</ele>
        <time>2011-09-04T01:56:01Z</time>
      </trkpt>
      <trkpt lat="44.33197" lon="2.01685">
        <ele>248</ele>
        <time>2011-09-04T01:56:05Z</time>
      </trkpt>
      <trkpt lat="44.33172" lon="2.01563">
        <ele>248</ele>
        <time>2011-09-04T01:56:17Z</time>
      </trkpt>
      <trkpt lat="44.33159" lon="2.01477">
        <ele>247</ele>
        <time>2011-09-04T01:56:25Z</time>
      </trkpt>
      <trkpt lat="44.33148" lon="2.01369">
        <ele>247</ele>
        <time>2011-09-04T01:56:36Z</time>
      </trkpt>
      <trkpt lat="44.3314" lon="2.01337">
        <ele>246</ele>
        <time>2011-09-04T01:56:39Z</time>
      </trkpt>
      <trkpt lat="44.3311" lon="2.01252">
        <ele>246</ele>
        <time>2011-09-04T01:56:48Z</time>
      </trkpt>
      <trkpt lat="44.32963" lon="2.00878">
        <ele>252</ele>
        <time>2011-09-04T01:57:43Z</time>
      </trkpt>
      <trkpt lat="44.32947" lon="2.00848">
        <ele>254</ele>
        <time>2011-09-04T01:57:52Z</time>
      </trkpt>
      <trkpt lat="44.32914" lon="2.00811">
        <ele>257</ele>
        <time>2011-09-04T01:58:05Z</time>
      </trkpt>
      <trkpt lat="44.32764" lon="2.00732">
        <ele>270</ele>
        <time>2011-09-04T01:58:57Z</time>
      </trkpt>
      <trkpt lat="44.32714" lon="2.00722">
        <ele>270</ele>
        <time>2011-09-04T01:59:04Z</time>
      </trkpt>
      <trkpt lat="44.32664" lon="2.0073">
        <ele>270</ele>
        <time>2011-09-04T01:59:10Z</time>
      </trkpt>
      <trkpt lat="44.32605" lon="2.00729">
        <ele>271</ele>
        <time>2011-09-04T01:59:21Z</time>
      </trkpt>
      <trkpt lat="44.32514" lon="2.00751">
        <ele>273</ele>
        <time>2011-09-04T01:59:38Z</time>
      </trkpt>
      <trkpt lat="44.32465" lon="2.00774">
        <ele>269</ele>
        <time>2011-09-04T01:59:45Z</time>
      </trkpt>
      <trkpt lat="44.32369" lon="2.00843">
        <ele>262</ele>
        <time>2011-09-04T01:59:59Z</time>
      </trkpt>
      <trkpt lat="44.32286" lon="2.0089">
        <ele>258</ele>
        <time>2011-09-04T02:00:11Z</time>
      </trkpt>
      <trkpt lat="44.32191" lon="2.00922">
        <ele>254</ele>
        <time>2011-09-04T02:00:24Z</time>
      </trkpt>
      <trkpt lat="44.32136" lon="2.0093">
        <ele>253</ele>
        <time>2011-09-04T02:00:32Z</time>
      </trkpt>
      <trkpt lat="44.32081" lon="2.00929">
        <ele>253</ele>
        <time>2011-09-04T02:00:39Z</time>
      </trkpt>
      <trkpt lat="44.32054" lon="2.00937">
        <ele>252</ele>
        <time>2011-09-04T02:00:43Z</time>
      </trkpt>
      <trkpt lat="44.32014" lon="2.00958">
        <ele>252</ele>
        <time>2011-09-04T02:00:48Z</time>
      </trkpt>
      <trkpt lat="44.31854" lon="2.01077">
        <ele>251</ele>
        <time>2011-09-04T02:01:13Z</time>
      </trkpt>
      <trkpt lat="44.3179" lon="2.01119">
        <ele>250</ele>
        <time>2011-09-04T02:01:22Z</time>
      </trkpt>
      <trkpt lat="44.31675" lon="2.01162">
        <ele>250</ele>
        <time>2011-09-04T02:01:38Z</time>
      </trkpt>
      <trkpt lat="44.31614" lon="2.01193">
        <ele>248</ele>
        <time>2011-09-04T02:01:47Z</time>
      </trkpt>
      <trkpt lat="44.31571" lon="2.01202">
        <ele>248</ele>
        <time>2011-09-04T02:01:52Z</time>
      </trkpt>
      <trkpt lat="44.31512" lon="2.01191">
        <ele>248</ele>
        <time>2011-09-04T02:02:00Z</time>
      </trkpt>
      <trkpt lat="44.31457" lon="2.01168">
        <ele>248</ele>
        <time>2011-09-04T02:02:08Z</time>
      </trkpt>
      <trkpt lat="44.31425" lon="2.0116">
        <ele>248</ele>
        <time>2011-09-04T02:02:15Z</time>
      </trkpt>
      <trkpt lat="44.31376" lon="2.01159">
        <ele>250</ele>
        <time>2011-09-04T02:02:25Z</time>
      </trkpt>
      <trkpt lat="44.31288" lon="2.01174">
        <ele>253</ele>
        <time>2011-09-04T02:02:43Z</time>
      </trkpt>
      <trkpt lat="44.31252" lon="2.0117">
        <ele>253</ele>
        <time>2011-09-04T02:02:49Z</time>
      </trkpt>
      <trkpt lat="44.30866" lon="2.00978">
        <ele>261</ele>
        <time>2011-09-04T02:04:01Z</time>
      </trkpt>
      <trkpt lat="44.30807" lon="2.00958">
        <ele>261</ele>
        <time>2011-09-04T02:04:12Z</time>
      </trkpt>
      <trkpt lat="44.30574" lon="2.0097">
        <ele>265</ele>
        <time>2011-09-04T02:04:50Z</time>
      </trkpt>
      <trkpt lat="44.30417" lon="2.00962">
        <ele>267</ele>
        <time>2011-09-04T02:05:16Z</time>
      </trkpt>
      <trkpt lat="44.3004" lon="2.00969">
        <ele>259</ele>
        <time>2011-09-04T02:06:06Z</time>
      </trkpt>
      <trkpt lat="44.29949" lon="2.0096">
        <ele>259</ele>
        <time>2011-09-04T02:06:19Z</time>
      </trkpt>
      <trkpt lat="44.29887" lon="2.00946">
        <ele>256</ele>
        <time>2011-09-04T02:06:27Z</time>
      </trkpt>
      <trkpt lat="44.29861" lon="2.0095">
        <ele>254</ele>
        <time>2011-09-04T02:06:31Z</time>
      </trkpt>
      <trkpt lat="44.29799" lon="2.00972">
        <ele>252</ele>
        <time>2011-09-04T02:06:39Z</time>
      </trkpt>
      <trkpt lat="44.29651" lon="2.00976">
        <ele>253</ele>
        <time>2011-09-04T02:07:01Z</time>
      </trkpt>
      <trkpt lat="44.29613" lon="2.00963">
        <ele>251</ele>
        <time>2011-09-04T02:07:07Z</time>
      </trkpt>
      <trkpt lat="44.295" lon="2.00888">
        <ele>245</ele>
        <time>2011-09-04T02:07:23Z</time>
      </trkpt>
      <trkpt lat="44.29441" lon="2.00807">
        <ele>244</ele>
        <time>2011-09-04T02:07:34Z</time>
      </trkpt>
      <trkpt lat="44.29401" lon="2.00776">
        <ele>244</ele>
        <time>2011-09-04T02:07:40Z</time>
      </trkpt>
      <trkpt lat="44.29346" lon="2.00759">
        <ele>242</ele>
        <time>2011-09-04T02:07:48Z</time>
      </trkpt>
      <trkpt lat="44.29218" lon="2.00764">
        <ele>239</ele>
        <time>2011-09-04T02:08:05Z</time>
      </trkpt>
      <trkpt lat="44.29117" lon="2.00724">
        <ele>237</ele>
        <time>2011-09-04T02:08:19Z</time>
      </trkpt>
      <trkpt lat="44.29071" lon="2.00688">
        <ele>237</ele>
        <time>2011-09-04T02:08:27Z</time>
      </trkpt>
      <trkpt lat="44.29048" lon="2.00655">
        <ele>237</ele>
        <time>2011-09-04T02:08:32Z</time>
      </trkpt>
      <trkpt lat="44.29009" lon="2.00575">
        <ele>238</ele>
        <time>2011-09-04T02:08:42Z</time>
      </trkpt>
      <trkpt lat="44.28963" lon="2.00496">
        <ele>238</ele>
        <time>2011-09-04T02:08:54Z</time>
      </trkpt>
      <trkpt lat="44.28894" lon="2.00385">
        <ele>240</ele>
        <time>2011-09-04T02:09:11Z</time>
      </trkpt>
      <trkpt lat="44.28811" lon="2.00291">
        <ele>238</ele>
        <time>2011-09-04T02:09:25Z</time>
      </trkpt>
      <trkpt lat="44.28725" lon="2.0017">
        <ele>234</ele>
        <time>2011-09-04T02:09:41Z</time>
      </trkpt>
      <trkpt lat="44.28695" lon="2.00082">
        <ele>235</ele>
        <time>2011-09-04T02:09:55Z</time>
      </trkpt>
      <trkpt lat="44.28681" lon="2.00023">
        <ele>237</ele>
        <time>2011-09-04T02:10:04Z</time>
      </trkpt>
      <trkpt lat="44.28697" lon="1.99975">
        <ele>238</ele>
        <time>2011-09-04T02:10:13Z</time>
      </trkpt>
      <trkpt lat="44.28678" lon="1.9995">
        <ele>240</ele>
        <time>2011-09-04T02:10:20Z</time>
      </trkpt>
      <trkpt lat="44.28672" lon="1.99864">
        <ele>243</ele>
        <time>2011-09-04T02:10:35Z</time>
      </trkpt>
      <trkpt lat="44.28654" lon="1.99844">
        <ele>243</ele>
        <time>2011-09-04T02:10:39Z</time>
      </trkpt>
      <trkpt lat="44.28602" lon="1.9981">
        <ele>244</ele>
        <time>2011-09-04T02:10:50Z</time>
      </trkpt>
      <trkpt lat="44.28499" lon="1.99758">
        <ele>247</ele>
        <time>2011-09-04T02:11:10Z</time>
      </trkpt>
      <trkpt lat="44.28358" lon="1.99676">
        <ele>252</ele>
        <time>2011-09-04T02:11:42Z</time>
      </trkpt>
      <trkpt lat="44.28291" lon="1.99644">
        <ele>253</ele>
        <time>2011-09-04T02:11:56Z</time>
      </trkpt>
      <trkpt lat="44.28241" lon="1.99631">
        <ele>255</ele>
        <time>2011-09-04T02:12:06Z</time>
      </trkpt>
      <trkpt lat="44.28187" lon="1.99634">
        <ele>256</ele>
        <time>2011-09-04T02:12:17Z</time>
      </trkpt>
      <trkpt lat="44.28098" lon="1.99671">
        <ele>259</ele>
        <time>2011-09-04T02:12:35Z</time>
      </trkpt>
      <trkpt lat="44.27861" lon="1.99813">
        <ele>250</ele>
        <time>2011-09-04T02:13:09Z</time>
      </trkpt>
      <trkpt lat="44.27628" lon="1.99989">
        <ele>243</ele>
        <time>2011-09-04T02:13:45Z</time>
      </trkpt>
      <trkpt lat="44.27549" lon="2.00033">
        <ele>240</ele>
        <time>2011-09-04T02:13:56Z</time>
      </trkpt>
      <trkpt lat="44.2745" lon="2.00065">
        <ele>238</ele>
        <time>2011-09-04T02:14:10Z</time>
      </trkpt>
      <trkpt lat="44.27265" lon="2.00058">
        <ele>237</ele>
        <time>2011-09-04T02:14:35Z</time>
      </trkpt>
      <trkpt lat="44.27185" lon="2.00047">
        <ele>235</ele>
        <time>2011-09-04T02:14:45Z</time>
      </trkpt>
      <trkpt lat="44.26973" lon="1.99965">
        <ele>233</ele>
        <time>2011-09-04T02:15:15Z</time>
      </trkpt>
      <trkpt lat="44.26864" lon="1.9991">
        <ele>232</ele>
        <time>2011-09-04T02:15:30Z</time>
      </trkpt>
      <trkpt lat="44.26835" lon="1.99995">
        <ele>231</ele>
        <time>2011-09-04T02:15:39Z</time>
      </trkpt>
      <trkpt lat="44.26835" lon="1.99995">
        <ele>231</ele>
        <time>2011-09-04T02:15:40Z</time>
      </trkpt>
      <trkpt lat="44.26864" lon="1.9991">
        <ele>231</ele>
        <time>2011-09-04T02:15:51Z</time>
      </trkpt>
      <trkpt lat="44.26777" lon="1.99872">
        <ele>233</ele>
        <time>2011-09-04T02:16:06Z</time>
      </trkpt>
      <trkpt lat="44.26714" lon="1.99827">
        <ele>235</ele>
        <time>2011-09-04T02:16:21Z</time>
      </trkpt>
      <trkpt lat="44.26669" lon="1.99816">
        <ele>237</ele>
        <time>2011-09-04T02:16:31Z</time>
      </trkpt>
      <trkpt lat="44.26602" lon="1.99746">
        <ele>238</ele>
        <time>2011-09-04T02:16:46Z</time>
      </trkpt>
      <trkpt lat="44.26592" lon="1.9972">
        <ele>239</ele>
        <time>2011-09-04T02:16:50Z</time>
      </trkpt>
      <trkpt lat="44.26588" lon="1.99684">
        <ele>239</ele>
        <time>2011-09-04T02:16:55Z</time>
      </trkpt>
      <trkpt lat="44.26597" lon="1.99544">
        <ele>241</ele>
        <time>2011-09-04T02:17:12Z</time>
      </trkpt>
      <trkpt lat="44.26596" lon="1.99512">
        <ele>242</ele>
        <time>2011-09-04T02:17:19Z</time>
      </trkpt>
      <trkpt lat="44.26591" lon="1.99485">
        <ele>244</ele>
        <time>2011-09-04T02:17:26Z</time>
      </trkpt>
      <trkpt lat="44.26563" lon="1.99398">
        <ele>250</ele>
        <time>2011-09-04T02:17:48Z</time>
      </trkpt>
      <trkpt lat="44.26562" lon="1.99374">
        <ele>250</ele>
        <time>2011-09-04T02:17:52Z</time>
      </trkpt>
      <trkpt lat="44.26566" lon="1.99353">
        <ele>251</ele>
        <time>2011-09-04T02:17:55Z</time>
      </trkpt>
      <trkpt lat="44.26598" lon="1.99279">
        <ele>253</ele>
        <time>2011-09-04T02:18:08Z</time>
      </trkpt>
      <trkpt lat="44.26608" lon="1.99222">
        <ele>256</ele>
        <time>2011-09-04T02:18:22Z</time>
      </trkpt>
      <trkpt lat="44.26616" lon="1.99166">
        <ele>259</ele>
        <time>2011-09-04T02:18:35Z</time>
      </trkpt>
      <trkpt lat="44.26621" lon="1.99065">
        <ele>265</ele>
        <time>2011-09-04T02:18:58Z</time>
      </trkpt>
      <trkpt lat="44.26639" lon="1.98983">
        <ele>269</ele>
        <time>2011-09-04T02:19:17Z</time>
      </trkpt>
      <trkpt lat="44.26635" lon="1.98964">
        <ele>270</ele>
        <time>2011-09-04T02:19:22Z</time>
      </trkpt>
      <trkpt lat="44.26624" lon="1.98957">
        <ele>271</ele>
        <time>2011-09-04T02:19:26Z</time>
      </trkpt>
      <trkpt lat="44.26614" lon="1.98957">
        <ele>272</ele>
        <time>2011-09-04T02:19:29Z</time>
      </trkpt>
      <trkpt lat="44.26608" lon="1.98963">
        <ele>273</ele>
        <time>2011-09-04T02:19:32Z</time>
      </trkpt>
      <trkpt lat="44.26553" lon="1.99066">
        <ele>280</ele>
        <time>2011-09-04T02:20:01Z</time>
      </trkpt>
      <trkpt lat="44.2653" lon="1.99096">
        <ele>283</ele>
        <time>2011-09-04T02:20:11Z</time>
      </trkpt>
      <trkpt lat="44.26493" lon="1.99127">
        <ele>286</ele>
        <time>2011-09-04T02:20:25Z</time>
      </trkpt>
      <trkpt lat="44.2645" lon="1.99189">
        <ele>291</ele>
        <time>2011-09-04T02:20:45Z</time>
      </trkpt>
      <trkpt lat="44.2642" lon="1.99212">
        <ele>295</ele>
        <time>2011-09-04T02:21:00Z</time>
      </trkpt>
      <trkpt lat="44.26354" lon="1.99232">
        <ele>304</ele>
        <time>2011-09-04T02:21:29Z</time>
      </trkpt>
      <trkpt lat="44.26312" lon="1.99259">
        <ele>307</ele>
        <time>2011-09-04T02:21:43Z</time>
      </trkpt>
      <trkpt lat="44.26292" lon="1.99287">
        <ele>308</ele>
        <time>2011-09-04T02:21:51Z</time>
      </trkpt>
      <trkpt lat="44.26255" lon="1.99385">
        <ele>314</ele>
        <time>2011-09-04T02:22:14Z</time>
      </trkpt>
      <trkpt lat="44.26234" lon="1.99413">
        <ele>316</ele>
        <time>2011-09-04T02:22:25Z</time>
      </trkpt>
      <trkpt lat="44.26166" lon="1.99443">
        <ele>324</ele>
        <time>2011-09-04T02:22:51Z</time>
      </trkpt>
      <trkpt lat="44.26146" lon="1.99445">
        <ele>326</ele>
        <time>2011-09-04T02:23:00Z</time>
      </trkpt>
      <trkpt lat="44.26085" lon="1.99429">
        <ele>334</ele>
        <time>2011-09-04T02:23:27Z</time>
      </trkpt>
      <trkpt lat="44.26004" lon="1.99434">
        <ele>344</ele>
        <time>2011-09-04T02:24:01Z</time>
      </trkpt>
      <trkpt lat="44.25977" lon="1.99443">
        <ele>344</ele>
        <time>2011-09-04T02:24:06Z</time>
      </trkpt>
      <trkpt lat="44.25951" lon="1.99459">
        <ele>344</ele>
        <time>2011-09-04T02:24:10Z</time>
      </trkpt>
      <trkpt lat="44.25926" lon="1.99461">
        <ele>344</ele>
        <time>2011-09-04T02:24:14Z</time>
      </trkpt>
      <trkpt lat="44.25916" lon="1.99452">
        <ele>344</ele>
        <time>2011-09-04T02:24:16Z</time>
      </trkpt>
      <trkpt lat="44.25909" lon="1.99438">
        <ele>345</ele>
        <time>2011-09-04T02:24:18Z</time>
      </trkpt>
      <trkpt lat="44.25895" lon="1.99388">
        <ele>349</ele>
        <time>2011-09-04T02:24:33Z</time>
      </trkpt>
      <trkpt lat="44.25878" lon="1.99357">
        <ele>352</ele>
        <time>2011-09-04T02:24:45Z</time>
      </trkpt>
      <trkpt lat="44.25828" lon="1.99319">
        <ele>359</ele>
        <time>2011-09-04T02:25:08Z</time>
      </trkpt>
      <trkpt lat="44.25792" lon="1.99271">
        <ele>364</ele>
        <time>2011-09-04T02:25:28Z</time>
      </trkpt>
      <trkpt lat="44.25774" lon="1.99255">
        <ele>367</ele>
        <time>2011-09-04T02:25:37Z</time>
      </trkpt>
      <trkpt lat="44.25664" lon="1.99189">
        <ele>381</ele>
        <time>2011-09-04T02:26:26Z</time>
      </trkpt>
      <trkpt lat="44.25606" lon="1.99133">
        <ele>388</ele>
        <time>2011-09-04T02:26:54Z</time>
      </trkpt>
      <trkpt lat="44.25586" lon="1.99126">
        <ele>391</ele>
        <time>2011-09-04T02:27:02Z</time>
      </trkpt>
      <trkpt lat="44.25513" lon="1.99122">
        <ele>393</ele>
        <time>2011-09-04T02:27:18Z</time>
      </trkpt>
      <trkpt lat="44.25496" lon="1.99111">
        <ele>394</ele>
        <time>2011-09-04T02:27:22Z</time>
      </trkpt>
      <trkpt lat="44.25487" lon="1.99091">
        <ele>395</ele>
        <time>2011-09-04T02:27:27Z</time>
      </trkpt>
      <trkpt lat="44.25485" lon="1.99021">
        <ele>398</ele>
        <time>2011-09-04T02:27:41Z</time>
      </trkpt>
      <trkpt lat="44.25479" lon="1.98987">
        <ele>400</ele>
        <time>2011-09-04T02:27:48Z</time>
      </trkpt>
      <trkpt lat="44.25481" lon="1.98789">
        <ele>416</ele>
        <time>2011-09-04T02:28:46Z</time>
      </trkpt>
      <trkpt lat="44.25475" lon="1.98777">
        <ele>416</ele>
        <time>2011-09-04T02:28:48Z</time>
      </trkpt>
      <trkpt lat="44.25451" lon="1.98751">
        <ele>416</ele>
        <time>2011-09-04T02:28:53Z</time>
      </trkpt>
      <trkpt lat="44.25439" lon="1.98717">
        <ele>417</ele>
        <time>2011-09-04T02:28:58Z</time>
      </trkpt>
      <trkpt lat="44.25435" lon="1.98682">
        <ele>417</ele>
        <time>2011-09-04T02:29:02Z</time>
      </trkpt>
      <trkpt lat="44.25436" lon="1.98645">
        <ele>418</ele>
        <time>2011-09-04T02:29:07Z</time>
      </trkpt>
      <trkpt lat="44.25449" lon="1.98602">
        <ele>420</ele>
        <time>2011-09-04T02:29:18Z</time>
      </trkpt>
      <trkpt lat="44.25447" lon="1.9857">
        <ele>422</ele>
        <time>2011-09-04T02:29:25Z</time>
      </trkpt>
      <trkpt lat="44.2542" lon="1.98541">
        <ele>425</ele>
        <time>2011-09-04T02:29:36Z</time>
      </trkpt>
      <trkpt lat="44.25378" lon="1.98467">
        <ele>431</ele>
        <time>2011-09-04T02:29:59Z</time>
      </trkpt>
      <trkpt lat="44.25303" lon="1.98378">
        <ele>439</ele>
        <time>2011-09-04T02:30:31Z</time>
      </trkpt>
      <trkpt lat="44.25293" lon="1.98358">
        <ele>439</ele>
        <time>2011-09-04T02:30:34Z</time>
      </trkpt>
      <trkpt lat="44.25285" lon="1.98326">
        <ele>439</ele>
        <time>2011-09-04T02:30:37Z</time>
      </trkpt>
      <trkpt lat="44.25275" lon="1.98312">
        <ele>439</ele>
        <time>2011-09-04T02:30:39Z</time>
      </trkpt>
      <trkpt lat="44.25235" lon="1.98298">
        <ele>439</ele>
        <time>2011-09-04T02:30:44Z</time>
      </trkpt>
      <trkpt lat="44.25189" lon="1.98328">
        <ele>439</ele>
        <time>2011-09-04T02:30:51Z</time>
      </trkpt>
      <trkpt lat="44.25152" lon="1.98386">
        <ele>434</ele>
        <time>2011-09-04T02:30:58Z</time>
      </trkpt>
      <trkpt lat="44.25133" lon="1.98395">
        <ele>433</ele>
        <time>2011-09-04T02:31:01Z</time>
      </trkpt>
      <trkpt lat="44.25115" lon="1.98385">
        <ele>431</ele>
        <time>2011-09-04T02:31:04Z</time>
      </trkpt>
      <trkpt lat="44.25089" lon="1.98335">
        <ele>428</ele>
        <time>2011-09-04T02:31:10Z</time>
      </trkpt>
      <trkpt lat="44.2501" lon="1.98219">
        <ele>418</ele>
        <time>2011-09-04T02:31:25Z</time>
      </trkpt>
      <trkpt lat="44.24991" lon="1.98149">
        <ele>414</ele>
        <time>2011-09-04T02:31:32Z</time>
      </trkpt>
      <trkpt lat="44.24956" lon="1.98103">
        <ele>411</ele>
        <time>2011-09-04T02:31:38Z</time>
      </trkpt>
      <trkpt lat="44.24941" lon="1.98075">
        <ele>410</ele>
        <time>2011-09-04T02:31:42Z</time>
      </trkpt>
      <trkpt lat="44.24902" lon="1.97959">
        <ele>407</ele>
        <time>2011-09-04T02:31:54Z</time>
      </trkpt>
      <trkpt lat="44.24853" lon="1.97919">
        <ele>406</ele>
        <time>2011-09-04T02:32:02Z</time>
      </trkpt>
      <trkpt lat="44.24846" lon="1.97891">
        <ele>405</ele>
        <time>2011-09-04T02:32:04Z</time>
      </trkpt>
      <trkpt lat="44.24849" lon="1.9783">
        <ele>405</ele>
        <time>2011-09-04T02:32:10Z</time>
      </trkpt>
      <trkpt lat="44.24843" lon="1.97801">
        <ele>404</ele>
        <time>2011-09-04T02:32:13Z</time>
      </trkpt>
      <trkpt lat="44.24818" lon="1.97765">
        <ele>403</ele>
        <time>2011-09-04T02:32:18Z</time>
      </trkpt>
      <trkpt lat="44.24777" lon="1.97728">
        <ele>402</ele>
        <time>2011-09-04T02:32:25Z</time>
      </trkpt>
      <trkpt lat="44.24761" lon="1.97726">
        <ele>401</ele>
        <time>2011-09-04T02:32:27Z</time>
      </trkpt>
      <trkpt lat="44.24713" lon="1.97738">
        <ele>399</ele>
        <time>2011-09-04T02:32:33Z</time>
      </trkpt>
      <trkpt lat="44.24617" lon="1.9774">
        <ele>395</ele>
        <time>2011-09-04T02:32:46Z</time>
      </trkpt>
      <trkpt lat="44.24546" lon="1.97774">
        <ele>385</ele>
        <time>2011-09-04T02:32:56Z</time>
      </trkpt>
      <trkpt lat="44.24526" lon="1.97775">
        <ele>383</ele>
        <time>2011-09-04T02:32:59Z</time>
      </trkpt>
      <trkpt lat="44.24412" lon="1.97726">
        <ele>385</ele>
        <time>2011-09-04T02:33:19Z</time>
      </trkpt>
      <trkpt lat="44.24393" lon="1.97726">
        <ele>381</ele>
        <time>2011-09-04T02:33:22Z</time>
      </trkpt>
      <trkpt lat="44.2434" lon="1.97754">
        <ele>370</ele>
        <time>2011-09-04T02:33:30Z</time>
      </trkpt>
      <trkpt lat="44.24309" lon="1.9776">
        <ele>365</ele>
        <time>2011-09-04T02:33:34Z</time>
      </trkpt>
      <trkpt lat="44.24283" lon="1.97753">
        <ele>363</ele>
        <time>2011-09-04T02:33:37Z</time>
      </trkpt>
      <trkpt lat="44.24245" lon="1.97721">
        <ele>359</ele>
        <time>2011-09-04T02:33:43Z</time>
      </trkpt>
      <trkpt lat="44.24238" lon="1.97723">
        <ele>359</ele>
        <time>2011-09-04T02:33:44Z</time>
      </trkpt>
      <trkpt lat="44.24237" lon="1.9774">
        <ele>358</ele>
        <time>2011-09-04T02:33:46Z</time>
      </trkpt>
      <trkpt lat="44.24242" lon="1.97749">
        <ele>357</ele>
        <time>2011-09-04T02:33:47Z</time>
      </trkpt>
      <trkpt lat="44.24315" lon="1.97806">
        <ele>351</ele>
        <time>2011-09-04T02:33:58Z</time>
      </trkpt>
      <trkpt lat="44.24334" lon="1.97808">
        <ele>350</ele>
        <time>2011-09-04T02:34:01Z</time>
      </trkpt>
      <trkpt lat="44.24362" lon="1.97789">
        <ele>348</ele>
        <time>2011-09-04T02:34:05Z</time>
      </trkpt>
      <trkpt lat="44.24369" lon="1.97795">
        <ele>347</ele>
        <time>2011-09-04T02:34:06Z</time>
      </trkpt>
      <trkpt lat="44.24368" lon="1.97804">
        <ele>347</ele>
        <time>2011-09-04T02:34:07Z</time>
      </trkpt>
      <trkpt lat="44.24359" lon="1.97818">
        <ele>346</ele>
        <time>2011-09-04T02:34:09Z</time>
      </trkpt>
      <trkpt lat="44.2434" lon="1.97831">
        <ele>344</ele>
        <time>2011-09-04T02:34:11Z</time>
      </trkpt>
      <trkpt lat="44.24313" lon="1.97838">
        <ele>342</ele>
        <time>2011-09-04T02:34:15Z</time>
      </trkpt>
      <trkpt lat="44.24237" lon="1.97813">
        <ele>337</ele>
        <time>2011-09-04T02:34:25Z</time>
      </trkpt>
      <trkpt lat="44.24194" lon="1.97792">
        <ele>334</ele>
        <time>2011-09-04T02:34:32Z</time>
      </trkpt>
      <trkpt lat="44.24172" lon="1.97772">
        <ele>335</ele>
        <time>2011-09-04T02:34:38Z</time>
      </trkpt>
      <trkpt lat="44.24161" lon="1.97723">
        <ele>336</ele>
        <time>2011-09-04T02:34:47Z</time>
      </trkpt>
      <trkpt lat="44.2414" lon="1.97667">
        <ele>339</ele>
        <time>2011-09-04T02:34:58Z</time>
      </trkpt>
      <trkpt lat="44.24134" lon="1.97653">
        <ele>338</ele>
        <time>2011-09-04T02:35:00Z</time>
      </trkpt>
      <trkpt lat="44.2412" lon="1.97643">
        <ele>337</ele>
        <time>2011-09-04T02:35:02Z</time>
      </trkpt>
      <trkpt lat="44.24099" lon="1.97644">
        <ele>336</ele>
        <time>2011-09-04T02:35:05Z</time>
      </trkpt>
      <trkpt lat="44.24005" lon="1.9767">
        <ele>332</ele>
        <time>2011-09-04T02:35:17Z</time>
      </trkpt>
      <trkpt lat="44.23961" lon="1.97662">
        <ele>332</ele>
        <time>2011-09-04T02:35:23Z</time>
      </trkpt>
      <trkpt lat="44.2393" lon="1.97672">
        <ele>332</ele>
        <time>2011-09-04T02:35:27Z</time>
      </trkpt>
      <trkpt lat="44.23921" lon="1.97669">
        <ele>332</ele>
        <time>2011-09-04T02:35:29Z</time>
      </trkpt>
      <trkpt lat="44.23891" lon="1.97636">
        <ele>332</ele>
        <time>2011-09-04T02:35:34Z</time>
      </trkpt>
      <trkpt lat="44.23842" lon="1.97639">
        <ele>326</ele>
        <time>2011-09-04T02:35:40Z</time>
      </trkpt>
      <trkpt lat="44.23822" lon="1.97633">
        <ele>324</ele>
        <time>2011-09-04T02:35:43Z</time>
      </trkpt>
      <trkpt lat="44.23788" lon="1.97637">
        <ele>321</ele>
        <time>2011-09-04T02:35:48Z</time>
      </trkpt>
      <trkpt lat="44.23773" lon="1.97647">
        <ele>318</ele>
        <time>2011-09-04T02:35:50Z</time>
      </trkpt>
      <trkpt lat="44.23736" lon="1.97715">
        <ele>307</ele>
        <time>2011-09-04T02:35:58Z</time>
      </trkpt>
      <trkpt lat="44.23724" lon="1.97728">
        <ele>305</ele>
        <time>2011-09-04T02:36:00Z</time>
      </trkpt>
      <trkpt lat="44.23669" lon="1.97763">
        <ele>302</ele>
        <time>2011-09-04T02:36:08Z</time>
      </trkpt>
      <trkpt lat="44.23639" lon="1.97762">
        <ele>301</ele>
        <time>2011-09-04T02:36:12Z</time>
      </trkpt>
      <trkpt lat="44.23591" lon="1.97808">
        <ele>299</ele>
        <time>2011-09-04T02:36:20Z</time>
      </trkpt>
      <trkpt lat="44.2357" lon="1.97804">
        <ele>297</ele>
        <time>2011-09-04T02:36:23Z</time>
      </trkpt>
      <trkpt lat="44.23525" lon="1.97779">
        <ele>295</ele>
        <time>2011-09-04T02:36:29Z</time>
      </trkpt>
      <trkpt lat="44.23475" lon="1.97732">
        <ele>292</ele>
        <time>2011-09-04T02:36:37Z</time>
      </trkpt>
      <trkpt lat="44.23428" lon="1.97699">
        <ele>289</ele>
        <time>2011-09-04T02:36:44Z</time>
      </trkpt>
      <trkpt lat="44.23339" lon="1.97676">
        <ele>284</ele>
        <time>2011-09-04T02:36:56Z</time>
      </trkpt>
      <trkpt lat="44.23332" lon="1.97665">
        <ele>283</ele>
        <time>2011-09-04T02:36:58Z</time>
      </trkpt>
      <trkpt lat="44.23329" lon="1.97638">
        <ele>281</ele>
        <time>2011-09-04T02:37:00Z</time>
      </trkpt>
      <trkpt lat="44.23318" lon="1.97608">
        <ele>279</ele>
        <time>2011-09-04T02:37:04Z</time>
      </trkpt>
      <trkpt lat="44.23273" lon="1.97553">
        <ele>275</ele>
        <time>2011-09-04T02:37:12Z</time>
      </trkpt>
      <trkpt lat="44.23123" lon="1.97491">
        <ele>265</ele>
        <time>2011-09-04T02:37:33Z</time>
      </trkpt>
      <trkpt lat="44.23116" lon="1.97479">
        <ele>263</ele>
        <time>2011-09-04T02:37:34Z</time>
      </trkpt>
      <trkpt lat="44.23111" lon="1.97427">
        <ele>259</ele>
        <time>2011-09-04T02:37:39Z</time>
      </trkpt>
      <trkpt lat="44.23101" lon="1.97387">
        <ele>256</ele>
        <time>2011-09-04T02:37:43Z</time>
      </trkpt>
      <trkpt lat="44.23074" lon="1.9734">
        <ele>252</ele>
        <time>2011-09-04T02:37:49Z</time>
      </trkpt>
      <trkpt lat="44.22998" lon="1.97274">
        <ele>247</ele>
        <time>2011-09-04T02:38:01Z</time>
      </trkpt>
      <trkpt lat="44.22962" lon="1.97275">
        <ele>245</ele>
        <time>2011-09-04T02:38:06Z</time>
      </trkpt>
      <trkpt lat="44.22954" lon="1.9727">
        <ele>244</ele>
        <time>2011-09-04T02:38:07Z</time>
      </trkpt>
      <trkpt lat="44.22936" lon="1.97225">
        <ele>240</ele>
        <time>2011-09-04T02:38:12Z</time>
      </trkpt>
      <trkpt lat="44.22886" lon="1.97168">
        <ele>235</ele>
        <time>2011-09-04T02:38:20Z</time>
      </trkpt>
      <trkpt lat="44.22841" lon="1.97153">
        <ele>233</ele>
        <time>2011-09-04T02:38:27Z</time>
      </trkpt>
      <trkpt lat="44.22795" lon="1.97112">
        <ele>231</ele>
        <time>2011-09-04T02:38:34Z</time>
      </trkpt>
      <trkpt lat="44.22751" lon="1.97116">
        <ele>229</ele>
        <time>2011-09-04T02:38:40Z</time>
      </trkpt>
      <trkpt lat="44.22673" lon="1.97085">
        <ele>228</ele>
        <time>2011-09-04T02:38:51Z</time>
      </trkpt>
      <trkpt lat="44.2264" lon="1.9705">
        <ele>228</ele>
        <time>2011-09-04T02:38:56Z</time>
      </trkpt>
      <trkpt lat="44.22554" lon="1.97011">
        <ele>228</ele>
        <time>2011-09-04T02:39:08Z</time>
      </trkpt>
      <trkpt lat="44.22542" lon="1.97011">
        <ele>227</ele>
        <time>2011-09-04T02:39:10Z</time>
      </trkpt>
      <trkpt lat="44.22501" lon="1.97029">
        <ele>224</ele>
        <time>2011-09-04T02:39:16Z</time>
      </trkpt>
      <trkpt lat="44.22482" lon="1.9703">
        <ele>223</ele>
        <time>2011-09-04T02:39:18Z</time>
      </trkpt>
      <trkpt lat="44.22329" lon="1.96985">
        <ele>215</ele>
        <time>2011-09-04T02:39:39Z</time>
      </trkpt>
      <trkpt lat="44.22273" lon="1.96944">
        <ele>209</ele>
        <time>2011-09-04T02:39:47Z</time>
      </trkpt>
      <trkpt lat="44.2224" lon="1.96936">
        <ele>207</ele>
        <time>2011-09-04T02:39:52Z</time>
      </trkpt>
      <trkpt lat="44.22223" lon="1.96926">
        <ele>206</ele>
        <time>2011-09-04T02:39:54Z</time>
      </trkpt>
      <trkpt lat="44.22203" lon="1.96958">
        <ele>205</ele>
        <time>2011-09-04T02:39:58Z</time>
      </trkpt>
      <trkpt lat="44.22157" lon="1.97052">
        <ele>202</ele>
        <time>2011-09-04T02:40:09Z</time>
      </trkpt>
      <trkpt lat="44.22139" lon="1.9714">
        <ele>206</ele>
        <time>2011-09-04T02:40:28Z</time>
      </trkpt>
      <trkpt lat="44.22128" lon="1.97228">
        <ele>210</ele>
        <time>2011-09-04T02:40:46Z</time>
      </trkpt>
      <trkpt lat="44.22117" lon="1.97239">
        <ele>210</ele>
        <time>2011-09-04T02:40:50Z</time>
      </trkpt>
      <trkpt lat="44.22059" lon="1.97222">
        <ele>214</ele>
        <time>2011-09-04T02:41:07Z</time>
      </trkpt>
      <trkpt lat="44.2205" lon="1.97213">
        <ele>215</ele>
        <time>2011-09-04T02:41:11Z</time>
      </trkpt>
      <trkpt lat="44.22042" lon="1.9723">
        <ele>216</ele>
        <time>2011-09-04T02:41:15Z</time>
      </trkpt>
      <trkpt lat="44.22047" lon="1.97238">
        <ele>217</ele>
        <time>2011-09-04T02:41:17Z</time>
      </trkpt>
      <trkpt lat="44.22047" lon="1.97256">
        <ele>218</ele>
        <time>2011-09-04T02:41:21Z</time>
      </trkpt>
    </trkseg>
  </trk>
</gpx>